Observation data for Castolon 1NW BBNP on 11/15/2019      Previous  Date       Current Mesonet Observations  Soil Data  Daily Summary Page  Observations in Plain Language
KCA2 150600Z 29010KT 10/01 A3039 RMK A01 T01020005  RH  051%=      5-min Rain = 0
KCA2 150601Z 29010KT 10/01 A3039 RMK A01 T01020005  RH  051%=      5-min Rain = 0
KCA2 150602Z 29011KT 10/01 A3039 RMK A01 T01020005  RH  051%=      5-min Rain = 0
KCA2 150603Z 29010KT 10/00 A3039 RMK A01 T01010004  RH  051%=      5-min Rain = 0
KCA2 150604Z 29011KT 10/00 A3039 RMK A01 T01010004  RH  051%=      5-min Rain = 0
KCA2 150605Z 29012KT 10/00 A3039 RMK A01 T01020003  RH  050%=      5-min Rain = 0
KCA2 150606Z 29012KT 10/00 A3039 RMK A01 T01030003  RH  050%=      5-min Rain = 0
KCA2 150607Z 29011KT 10/00 A3039 RMK A01 T01040003  RH  049%=      5-min Rain = 0
KCA2 150608Z 29011KT 11/00 A3039 RMK A01 T01050003  RH  049%=      5-min Rain = 0
KCA2 150609Z 29010KT 10/00 A3039 RMK A01 T01040003  RH  049%=      5-min Rain = 0
KCA2 150610Z 29012KT 10/00 A3039 RMK A01 T01040003  RH  050%=      5-min Rain = 0
KCA2 150611Z 29012KT 10/00 A3039 RMK A01 T01040002  RH  049%=      5-min Rain = 0
KCA2 150612Z 29011KT 10/00 A3039 RMK A01 T01040002  RH  049%=      5-min Rain = 0
KCA2 150613Z 29010KT 10/00 A3039 RMK A01 T01040002  RH  049%=      5-min Rain = 0
KCA2 150614Z 30011KT 10/00 A3039 RMK A01 T01040003  RH  050%=      5-min Rain = 0
KCA2 150615Z 30010KT 10/00 A3039 RMK A01 T01040003  RH  050%=      5-min Rain = 0
KCA2 150616Z 29011KT 10/00 A3039 RMK A01 T01040002  RH  049%=      5-min Rain = 0
KCA2 150617Z 30010KT 10/00 A3039 RMK A01 T01040002  RH  049%=      5-min Rain = 0
KCA2 150618Z 29010KT 10/00 A3039 RMK A01 T01040002  RH  049%=      5-min Rain = 0
KCA2 150619Z 29009KT 10/00 A3039 RMK A01 T01040002  RH  049%=      5-min Rain = 0
KCA2 150620Z 29012KT 10/00 A3039 RMK A01 T01030003  RH  050%=      5-min Rain = 0
KCA2 150621Z 29010KT 10/00 A3039 RMK A01 T01030002  RH  049%=      5-min Rain = 0
KCA2 150622Z 29010KT 10/00 A3039 RMK A01 T01030002  RH  050%=      5-min Rain = 0
KCA2 150623Z 29010KT 10/00 A3039 RMK A01 T01030002  RH  049%=      5-min Rain = 0
KCA2 150624Z 30010KT 10/00 A3039 RMK A01 T01030002  RH  049%=      5-min Rain = 0
KCA2 150625Z 30011KT 10/00 A3039 RMK A01 T01030001  RH  049%=      5-min Rain = 0
KCA2 150626Z 30009KT 10/00 A3039 RMK A01 T01040002  RH  049%=      5-min Rain = 0
KCA2 150627Z 30010KT 10/00 A3039 RMK A01 T01040002  RH  049%=      5-min Rain = 0
KCA2 150628Z 29010KT 10/00 A3039 RMK A01 T01040001  RH  049%=      5-min Rain = 0
KCA2 150629Z 30011KT 10/00 A3039 RMK A01 T01040001  RH  049%=      5-min Rain = 0
KCA2 150630Z 30010KT 10/00 A3039 RMK A01 T01040001  RH  049%=      5-min Rain = 0
KCA2 150631Z 30011KT 10/00 A3039 RMK A01 T01040000  RH  049%=      5-min Rain = 0
KCA2 150632Z 29010KT 10/00 A3039 RMK A01 T01040001  RH  049%=      5-min Rain = 0
KCA2 150633Z 30011KT 10/00 A3039 RMK A01 T01040001  RH  049%=      5-min Rain = 0
KCA2 150634Z 29011KT 11/00 A3039 RMK A01 T01050001  RH  049%=      5-min Rain = 0
KCA2 150635Z 30010KT 10/00 A3039 RMK A01 T01040001  RH  049%=      5-min Rain = 0
KCA2 150636Z 30010KT 10/00 A3039 RMK A01 T01040002  RH  049%=      5-min Rain = 0
KCA2 150637Z 29010KT 10/00 A3039 RMK A01 T01030002  RH  049%=      5-min Rain = 0
KCA2 150638Z 29010KT 10/00 A3039 RMK A01 T01030001  RH  049%=      5-min Rain = 0
KCA2 150639Z 29009KT 10/00 A3039 RMK A01 T01040000  RH  049%=      5-min Rain = 0
KCA2 150640Z 29010KT 10/00 A3039 RMK A01 T01040001  RH  049%=      5-min Rain = 0
KCA2 150641Z 29009KT 10/00 A3039 RMK A01 T01030001  RH  049%=      5-min Rain = 0
KCA2 150642Z 29009KT 10/00 A3039 RMK A01 T01030002  RH  050%=      5-min Rain = 0
KCA2 150643Z 29008KT 10/00 A3039 RMK A01 T01020002  RH  050%=      5-min Rain = 0
KCA2 150644Z 29010KT 10/00 A3039 RMK A01 T01010002  RH  050%=      5-min Rain = 0
KCA2 150645Z 29011KT 10/00 A3039 RMK A01 T01010002  RH  050%=      5-min Rain = 0
KCA2 150646Z 29011KT 10/00 A3039 RMK A01 T01010001  RH  050%=      5-min Rain = 0
KCA2 150647Z 29011KT 10/00 A3039 RMK A01 T01020001  RH  049%=      5-min Rain = 0
KCA2 150648Z 30009KT 10/00 A3039 RMK A01 T01030001  RH  049%=      5-min Rain = 0
KCA2 150649Z 30011KT 10/00 A3039 RMK A01 T01030001  RH  049%=      5-min Rain = 0
KCA2 150650Z 30011KT 10/00 A3039 RMK A01 T010300-0  RH  049%=      5-min Rain = 0
KCA2 150651Z 29010KT 10/00 A3039 RMK A01 T010400-0  RH  048%=      5-min Rain = 0
KCA2 150652Z 29011KT 10/00 A3039 RMK A01 T010400-0  RH  048%=      5-min Rain = 0
KCA2 150653Z 29010KT 10/00 A3039 RMK A01 T010400-0  RH  048%=      5-min Rain = 0
KCA2 150654Z 30009KT 10/00 A3039 RMK A01 T010400-0  RH  049%=      5-min Rain = 0
KCA2 150655Z 30010KT 10/00 A3039 RMK A01 T01030001  RH  049%=      5-min Rain = 0
KCA2 150656Z 30010KT 10/00 A3039 RMK A01 T01020000  RH  049%=      5-min Rain = 0
KCA2 150657Z 30011KT 10/M00 A3039 RMK A01 T01021001  RH  049%=      5-min Rain = 0
KCA2 150658Z 30011KT 10/00 A3039 RMK A01 T010300-0  RH  049%=      5-min Rain = 0
KCA2 150659Z 29009KT 10/M00 A3039 RMK A01 T01031001  RH  049%=      5-min Rain = 0
KCA2 150700Z 29009KT 10/00 A3039 RMK A01 T01030001  RH  049%=      5-min Rain = 0
KCA2 150701Z 29010KT 10/00 A3039 RMK A01 T01020000  RH  049%=      5-min Rain = 0
KCA2 150702Z 29010KT 10/00 A3039 RMK A01 T01010000  RH  049%=      5-min Rain = 0
KCA2 150703Z 29010KT 10/00 A3039 RMK A01 T01010001  RH  050%=      5-min Rain = 0
KCA2 150704Z 29009KT 10/00 A3039 RMK A01 T01000001  RH  050%=      5-min Rain = 0
KCA2 150705Z 29009KT 10/00 A3039 RMK A01 T01000001  RH  050%=      5-min Rain = 0
KCA2 150706Z 30009KT 10/00 A3039 RMK A01 T00990002  RH  051%=      5-min Rain = 0
KCA2 150707Z 29009KT 10/00 A3039 RMK A01 T00990001  RH  051%=      5-min Rain = 0
KCA2 150708Z 29008KT 10/00 A3039 RMK A01 T00990001  RH  051%=      5-min Rain = 0
KCA2 150709Z 29008KT 10/00 A3039 RMK A01 T00990002  RH  051%=      5-min Rain = 0
KCA2 150710Z 29009KT 10/00 A3039 RMK A01 T00980002  RH  051%=      5-min Rain = 0
KCA2 150711Z 29009KT 10/00 A3039 RMK A01 T00970003  RH  052%=      5-min Rain = 0
KCA2 150712Z 29009KT 10/00 A3039 RMK A01 T00960003  RH  052%=      5-min Rain = 0
KCA2 150713Z 29010KT 10/00 A3039 RMK A01 T00960003  RH  052%=      5-min Rain = 0
KCA2 150714Z 29009KT 10/00 A3039 RMK A01 T00960003  RH  052%=      5-min Rain = 0
KCA2 150715Z 29009KT 10/00 A3039 RMK A01 T00950003  RH  052%=      5-min Rain = 0
KCA2 150716Z 29008KT 10/00 A3039 RMK A01 T00950003  RH  053%=      5-min Rain = 0
KCA2 150717Z 29009KT 10/00 A3039 RMK A01 T00950004  RH  053%=      5-min Rain = 0
KCA2 150718Z 28009KT 09/00 A3039 RMK A01 T00940004  RH  053%=      5-min Rain = 0
KCA2 150719Z 29008KT 09/01 A3039 RMK A01 T00940005  RH  054%=      5-min Rain = 0
KCA2 150720Z 28009KT 09/01 A3039 RMK A01 T00930005  RH  054%=      5-min Rain = 0
KCA2 150721Z 28009KT 09/01 A3039 RMK A01 T00920005  RH  055%=      5-min Rain = 0
KCA2 150722Z 28010KT 09/01 A3039 RMK A01 T00920006  RH  055%=      5-min Rain = 0
KCA2 150723Z 28009KT 09/01 A3039 RMK A01 T00920006  RH  055%=      5-min Rain = 0
KCA2 150724Z 29009KT 09/01 A3039 RMK A01 T00910006  RH  056%=      5-min Rain = 0
KCA2 150725Z 29008KT 09/01 A3039 RMK A01 T00900007  RH  056%=      5-min Rain = 0
KCA2 150726Z 29008KT 09/01 A3039 RMK A01 T00890007  RH  056%=      5-min Rain = 0
KCA2 150727Z 28009KT 09/01 A3039 RMK A01 T00890007  RH  057%=      5-min Rain = 0
KCA2 150728Z 29010KT 09/01 A3039 RMK A01 T00880007  RH  057%=      5-min Rain = 0
KCA2 150729Z 29009KT 09/01 A3039 RMK A01 T00880007  RH  056%=      5-min Rain = 0
KCA2 150730Z 28009KT 09/01 A3039 RMK A01 T00880006  RH  057%=      5-min Rain = 0
KCA2 150731Z 28009KT 09/01 A3039 RMK A01 T00880006  RH  057%=      5-min Rain = 0
KCA2 150732Z 28009KT 09/01 A3039 RMK A01 T00880005  RH  056%=      5-min Rain = 0
KCA2 150733Z 28008KT 09/01 A3039 RMK A01 T00880005  RH  056%=      5-min Rain = 0
KCA2 150734Z 28009KT 09/01 A3039 RMK A01 T00880005  RH  056%=      5-min Rain = 0
KCA2 150735Z 29009KT 09/00 A3039 RMK A01 T00890004  RH  055%=      5-min Rain = 0
KCA2 150736Z 28010KT 09/00 A3039 RMK A01 T00890004  RH  055%=      5-min Rain = 0
KCA2 150737Z 28009KT 09/00 A3039 RMK A01 T00890004  RH  055%=      5-min Rain = 0
KCA2 150738Z 28009KT 09/00 A3039 RMK A01 T00900004  RH  055%=      5-min Rain = 0
KCA2 150739Z 28009KT 09/00 A3039 RMK A01 T00900004  RH  055%=      5-min Rain = 0
KCA2 150740Z 28009KT 09/00 A3039 RMK A01 T00900004  RH  055%=      5-min Rain = 0
KCA2 150741Z 28009KT 09/01 A3039 RMK A01 T00900005  RH  055%=      5-min Rain = 0
KCA2 150742Z 28009KT 09/00 A3039 RMK A01 T00890004  RH  055%=      5-min Rain = 0
KCA2 150743Z 28009KT 09/00 A3039 RMK A01 T00890004  RH  055%=      5-min Rain = 0
KCA2 150744Z 29009KT 09/00 A3039 RMK A01 T00890004  RH  055%=      5-min Rain = 0
KCA2 150745Z 29009KT 09/00 A3039 RMK A01 T00880004  RH  055%=      5-min Rain = 0
KCA2 150746Z 29010KT 09/00 A3039 RMK A01 T00890004  RH  055%=      5-min Rain = 0
KCA2 150747Z 29010KT 09/00 A3039 RMK A01 T00880004  RH  055%=      5-min Rain = 0
KCA2 150748Z 29010KT 09/01 A3039 RMK A01 T00890005  RH  056%=      5-min Rain = 0
KCA2 150749Z 29011KT 09/00 A3039 RMK A01 T00890004  RH  055%=      5-min Rain = 0
KCA2 150750Z 29011KT 09/00 A3039 RMK A01 T00890003  RH  055%=      5-min Rain = 0
KCA2 150751Z 29010KT 09/00 A3039 RMK A01 T00900003  RH  055%=      5-min Rain = 0
KCA2 150752Z 29010KT 09/00 A3039 RMK A01 T00900003  RH  055%=      5-min Rain = 0
KCA2 150753Z 29012KT 09/00 A3039 RMK A01 T00900002  RH  054%=      5-min Rain = 0
KCA2 150754Z 29011KT 09/00 A3039 RMK A01 T00910002  RH  054%=      5-min Rain = 0
KCA2 150755Z 30010KT 09/00 A3039 RMK A01 T00910002  RH  054%=      5-min Rain = 0
KCA2 150756Z 30010KT 09/00 A3039 RMK A01 T00910002  RH  054%=      5-min Rain = 0
KCA2 150757Z 30010KT 09/00 A3039 RMK A01 T00920001  RH  053%=      5-min Rain = 0
KCA2 150758Z 29009KT 09/00 A3039 RMK A01 T00920001  RH  053%=      5-min Rain = 0
KCA2 150759Z 29009KT 09/00 A3039 RMK A01 T00920001  RH  053%=      5-min Rain = 0
KCA2 150800Z 29008KT 09/00 A3039 RMK A01 T00920001  RH  053%=      5-min Rain = 0
KCA2 150801Z 29008KT 09/00 A3039 RMK A01 T00920001  RH  053%=      5-min Rain = 0
KCA2 150802Z 29010KT 09/00 A3039 RMK A01 T00920001  RH  053%=      5-min Rain = 0
KCA2 150803Z 29009KT 09/00 A3039 RMK A01 T00920000  RH  053%=      5-min Rain = 0
KCA2 150804Z 29010KT 09/00 A3039 RMK A01 T009300-0  RH  052%=      5-min Rain = 0
KCA2 150805Z 29012KT 09/M00 A3039 RMK A01 T00941001  RH  052%=      5-min Rain = 0
KCA2 150806Z 30010KT 10/M00 A3039 RMK A01 T00951001  RH  051%=      5-min Rain = 0
KCA2 150807Z 30009KT 10/M00 A3039 RMK A01 T00951001  RH  051%=      5-min Rain = 0
KCA2 150808Z 30010KT 10/00 A3039 RMK A01 T009500-0  RH  051%=      5-min Rain = 0
KCA2 150809Z 30011KT 10/00 A3039 RMK A01 T009500-0  RH  051%=      5-min Rain = 0
KCA2 150810Z 29011KT 10/M00 A3039 RMK A01 T00951001  RH  051%=      5-min Rain = 0
KCA2 150811Z 29009KT 10/00 A3039 RMK A01 T009500-0  RH  051%=      5-min Rain = 0
KCA2 150812Z 29010KT 09/00 A3039 RMK A01 T00940000  RH  052%=      5-min Rain = 0
KCA2 150813Z 29009KT 09/00 A3039 RMK A01 T00930000  RH  052%=      5-min Rain = 0
KCA2 150814Z 29009KT 09/00 A3039 RMK A01 T00930001  RH  053%=      5-min Rain = 0
KCA2 150815Z 29009KT 09/00 A3039 RMK A01 T00920001  RH  053%=      5-min Rain = 0
KCA2 150816Z 29010KT 09/00 A3039 RMK A01 T00910001  RH  053%=      5-min Rain = 0
KCA2 150817Z 29011KT 09/00 A3039 RMK A01 T00910001  RH  053%=      5-min Rain = 0
KCA2 150818Z 29010KT 09/00 A3039 RMK A01 T00920000  RH  053%=      5-min Rain = 0
KCA2 150819Z 29010KT 09/00 A3039 RMK A01 T00920001  RH  053%=      5-min Rain = 0
KCA2 150820Z 29010KT 09/00 A3039 RMK A01 T00920001  RH  053%=      5-min Rain = 0
KCA2 150821Z 29010KT 09/00 A3039 RMK A01 T00910001  RH  053%=      5-min Rain = 0
KCA2 150822Z 29010KT 09/00 A3039 RMK A01 T00910001  RH  053%=      5-min Rain = 0
KCA2 150823Z 29010KT 09/00 A3039 RMK A01 T00910001  RH  053%=      5-min Rain = 0
KCA2 150824Z 29010KT 09/00 A3039 RMK A01 T00910001  RH  054%=      5-min Rain = 0
KCA2 150825Z 30010KT 09/00 A3039 RMK A01 T00900002  RH  054%=      5-min Rain = 0
KCA2 150826Z 29009KT 09/00 A3039 RMK A01 T00900001  RH  054%=      5-min Rain = 0
KCA2 150827Z 29010KT 09/00 A3039 RMK A01 T00900001  RH  054%=      5-min Rain = 0
KCA2 150828Z 29009KT 09/00 A3039 RMK A01 T00900002  RH  054%=      5-min Rain = 0
KCA2 150829Z 29009KT 09/00 A3039 RMK A01 T00890002  RH  054%=      5-min Rain = 0
KCA2 150830Z 29010KT 09/00 A3039 RMK A01 T00880002  RH  055%=      5-min Rain = 0
KCA2 150831Z 29010KT 09/00 A3039 RMK A01 T00880001  RH  055%=      5-min Rain = 0
KCA2 150832Z 29010KT 09/00 A3038 RMK A01 T00890001  RH  054%=      5-min Rain = 0
KCA2 150833Z 29011KT 09/00 A3038 RMK A01 T00890001  RH  054%=      5-min Rain = 0
KCA2 150834Z 29009KT 09/00 A3038 RMK A01 T00890001  RH  054%=      5-min Rain = 0
KCA2 150835Z 29010KT 09/00 A3038 RMK A01 T00900001  RH  054%=      5-min Rain = 0
KCA2 150836Z 30009KT 09/00 A3038 RMK A01 T00890001  RH  054%=      5-min Rain = 0
KCA2 150837Z 29010KT 09/00 A3038 RMK A01 T00890000  RH  054%=      5-min Rain = 0
KCA2 150838Z 29008KT 09/00 A3038 RMK A01 T00890000  RH  054%=      5-min Rain = 0
KCA2 150839Z 30009KT 09/00 A3038 RMK A01 T00890001  RH  054%=      5-min Rain = 0
KCA2 150840Z 29009KT 09/00 A3038 RMK A01 T00890001  RH  054%=      5-min Rain = 0
KCA2 150841Z 29009KT 09/00 A3038 RMK A01 T00890001  RH  054%=      5-min Rain = 0
KCA2 150842Z 29010KT 09/00 A3038 RMK A01 T00890001  RH  054%=      5-min Rain = 0
KCA2 150843Z 29009KT 09/00 A3038 RMK A01 T00880000  RH  054%=      5-min Rain = 0
KCA2 150844Z 30009KT 09/00 A3038 RMK A01 T00880001  RH  054%=      5-min Rain = 0
KCA2 150845Z 30009KT 09/00 A3038 RMK A01 T00880001  RH  054%=      5-min Rain = 0
KCA2 150846Z 30009KT 09/00 A3038 RMK A01 T008800-0  RH  054%=      5-min Rain = 0
KCA2 150847Z 30009KT 09/00 A3038 RMK A01 T00880000  RH  054%=      5-min Rain = 0
KCA2 150848Z 29010KT 09/00 A3038 RMK A01 T00880001  RH  054%=      5-min Rain = 0
KCA2 150849Z 30009KT 09/00 A3038 RMK A01 T00880000  RH  054%=      5-min Rain = 0
KCA2 150850Z 30008KT 09/00 A3038 RMK A01 T00880001  RH  054%=      5-min Rain = 0
KCA2 150851Z 30009KT 09/00 A3038 RMK A01 T00880001  RH  054%=      5-min Rain = 0
KCA2 150852Z 30010KT 09/00 A3038 RMK A01 T00880001  RH  054%=      5-min Rain = 0
KCA2 150853Z 30009KT 09/00 A3038 RMK A01 T00880001  RH  054%=      5-min Rain = 0
KCA2 150854Z 30009KT 09/00 A3038 RMK A01 T00880001  RH  054%=      5-min Rain = 0
KCA2 150855Z 30008KT 09/00 A3038 RMK A01 T00880001  RH  054%=      5-min Rain = 0
KCA2 150856Z 29009KT 09/00 A3038 RMK A01 T00880001  RH  055%=      5-min Rain = 0
KCA2 150857Z 30009KT 09/00 A3038 RMK A01 T00870001  RH  055%=      5-min Rain = 0
KCA2 150858Z 29009KT 09/00 A3038 RMK A01 T00870001  RH  055%=      5-min Rain = 0
KCA2 150859Z 29009KT 09/00 A3038 RMK A01 T00870001  RH  055%=      5-min Rain = 0
KCA2 150900Z 29010KT 09/00 A3038 RMK A01 T00860001  RH  055%=      5-min Rain = 0
KCA2 150901Z 29009KT 09/00 A3038 RMK A01 T00860001  RH  055%=      5-min Rain = 0
KCA2 150902Z 29009KT 09/00 A3038 RMK A01 T00860001  RH  055%=      5-min Rain = 0
KCA2 150903Z 29008KT 09/00 A3038 RMK A01 T00860002  RH  055%=      5-min Rain = 0
KCA2 150904Z 29010KT 09/00 A3038 RMK A01 T00850002  RH  056%=      5-min Rain = 0
KCA2 150905Z 30009KT 09/00 A3038 RMK A01 T00850001  RH  055%=      5-min Rain = 0
KCA2 150906Z 30011KT 09/00 A3038 RMK A01 T00850001  RH  056%=      5-min Rain = 0
KCA2 150907Z 29010KT 09/00 A3038 RMK A01 T00860001  RH  055%=      5-min Rain = 0
KCA2 150908Z 30009KT 09/00 A3038 RMK A01 T00860001  RH  055%=      5-min Rain = 0
KCA2 150909Z 30010KT 09/00 A3038 RMK A01 T00860001  RH  055%=      5-min Rain = 0
KCA2 150910Z 30009KT 09/00 A3038 RMK A01 T00860000  RH  055%=      5-min Rain = 0
KCA2 150911Z 30010KT 09/00 A3038 RMK A01 T00860000  RH  055%=      5-min Rain = 0
KCA2 150912Z 30010KT 09/00 A3038 RMK A01 T008600-0  RH  055%=      5-min Rain = 0
KCA2 150913Z 30009KT 09/00 A3038 RMK A01 T00860000  RH  055%=      5-min Rain = 0
KCA2 150914Z 30010KT 09/00 A3038 RMK A01 T008700-0  RH  054%=      5-min Rain = 0
KCA2 150915Z 30010KT 09/00 A3038 RMK A01 T008700-0  RH  054%=      5-min Rain = 0
KCA2 150916Z 30009KT 09/00 A3038 RMK A01 T008700-0  RH  054%=      5-min Rain = 0
KCA2 150917Z 30010KT 09/00 A3038 RMK A01 T008700-0  RH  054%=      5-min Rain = 0
KCA2 150918Z 30009KT 09/M00 A3038 RMK A01 T00871001  RH  054%=      5-min Rain = 0
KCA2 150919Z 30009KT 09/00 A3038 RMK A01 T008800-0  RH  054%=      5-min Rain = 0
KCA2 150920Z 30011KT 09/00 A3038 RMK A01 T008800-0  RH  054%=      5-min Rain = 0
KCA2 150921Z 30010KT 09/M00 A3038 RMK A01 T00881001  RH  054%=      5-min Rain = 0
KCA2 150922Z 30010KT 09/M00 A3038 RMK A01 T00881001  RH  054%=      5-min Rain = 0
KCA2 150923Z 30009KT 09/00 A3038 RMK A01 T008800-0  RH  054%=      5-min Rain = 0
KCA2 150924Z 30008KT 09/M00 A3038 RMK A01 T00881001  RH  054%=      5-min Rain = 0
KCA2 150925Z 30009KT 09/00 A3038 RMK A01 T008800-0  RH  054%=      5-min Rain = 0
KCA2 150926Z 30008KT 09/M00 A3038 RMK A01 T00881001  RH  054%=      5-min Rain = 0
KCA2 150927Z 30010KT 09/00 A3038 RMK A01 T008700-0  RH  054%=      5-min Rain = 0
KCA2 150928Z 31009KT 09/00 A3038 RMK A01 T008700-0  RH  054%=      5-min Rain = 0
KCA2 150929Z 30008KT 09/00 A3038 RMK A01 T008700-0  RH  054%=      5-min Rain = 0
KCA2 150930Z 30009KT 09/00 A3038 RMK A01 T008700-0  RH  054%=      5-min Rain = 0
KCA2 150931Z 30007KT 09/00 A3038 RMK A01 T00870000  RH  054%=      5-min Rain = 0
KCA2 150932Z 30007KT 09/00 A3038 RMK A01 T00860000  RH  055%=      5-min Rain = 0
KCA2 150933Z 30008KT 09/00 A3039 RMK A01 T008600-0  RH  055%=      5-min Rain = 0
KCA2 150934Z 31007KT 09/00 A3038 RMK A01 T008600-0  RH  055%=      5-min Rain = 0
KCA2 150935Z 30008KT 09/M00 A3039 RMK A01 T00861001  RH  054%=      5-min Rain = 0
KCA2 150936Z 30009KT 09/M00 A3039 RMK A01 T00861001  RH  054%=      5-min Rain = 0
KCA2 150937Z 30008KT 09/M00 A3039 RMK A01 T00871001  RH  054%=      5-min Rain = 0
KCA2 150938Z 31009KT 09/M00 A3039 RMK A01 T00871001  RH  054%=      5-min Rain = 0
KCA2 150939Z 31008KT 09/M00 A3039 RMK A01 T00881001  RH  054%=      5-min Rain = 0
KCA2 150940Z 31008KT 09/M00 A3039 RMK A01 T00881002  RH  053%=      5-min Rain = 0
KCA2 150941Z 30008KT 09/M00 A3039 RMK A01 T00881001  RH  054%=      5-min Rain = 0
KCA2 150942Z 30009KT 09/M00 A3039 RMK A01 T00881001  RH  054%=      5-min Rain = 0
KCA2 150943Z 31008KT 09/M00 A3039 RMK A01 T00881001  RH  054%=      5-min Rain = 0
KCA2 150944Z 30009KT 09/M00 A3039 RMK A01 T00881002  RH  053%=      5-min Rain = 0
KCA2 150945Z 30009KT 09/M00 A3039 RMK A01 T00881002  RH  053%=      5-min Rain = 0
KCA2 150946Z 30008KT 09/M00 A3039 RMK A01 T00881001  RH  053%=      5-min Rain = 0
KCA2 150947Z 30010KT 09/M00 A3039 RMK A01 T00881001  RH  054%=      5-min Rain = 0
KCA2 150948Z 30008KT 09/M00 A3039 RMK A01 T00871002  RH  053%=      5-min Rain = 0
KCA2 150949Z 30008KT 09/M00 A3039 RMK A01 T00881001  RH  054%=      5-min Rain = 0
KCA2 150950Z 30009KT 09/M00 A3039 RMK A01 T00871001  RH  054%=      5-min Rain = 0
KCA2 150951Z 30008KT 09/M00 A3039 RMK A01 T00861001  RH  054%=      5-min Rain = 0
KCA2 150952Z 30009KT 09/M00 A3039 RMK A01 T00861001  RH  055%=      5-min Rain = 0
KCA2 150953Z 30006KT 09/M00 A3039 RMK A01 T00861001  RH  054%=      5-min Rain = 0
KCA2 150954Z 30006KT 09/00 A3039 RMK A01 T008500-0  RH  055%=      5-min Rain = 0
KCA2 150955Z 30008KT 08/00 A3039 RMK A01 T00840000  RH  056%=      5-min Rain = 0
KCA2 150956Z 30008KT 08/M00 A3039 RMK A01 T00831001  RH  056%=      5-min Rain = 0
KCA2 150957Z 30008KT 08/00 A3039 RMK A01 T008300-0  RH  056%=      5-min Rain = 0
KCA2 150958Z 30008KT 08/M00 A3039 RMK A01 T00841001  RH  055%=      5-min Rain = 0
KCA2 150959Z 30008KT 08/M00 A3039 RMK A01 T00841001  RH  055%=      5-min Rain = 0
KCA2 151000Z 30009KT 09/M00 A3039 RMK A01 T00851001  RH  055%=      5-min Rain = 0
KCA2 151001Z 30009KT 09/M00 A3039 RMK A01 T00861001  RH  054%=      5-min Rain = 0
KCA2 151002Z 30009KT 09/M00 A3039 RMK A01 T00861002  RH  054%=      5-min Rain = 0
KCA2 151003Z 30008KT 09/M00 A3039 RMK A01 T00871002  RH  054%=      5-min Rain = 0
KCA2 151004Z 30008KT 09/M00 A3039 RMK A01 T00871002  RH  054%=      5-min Rain = 0
KCA2 151005Z 31008KT 09/M00 A3039 RMK A01 T00871002  RH  054%=      5-min Rain = 0
KCA2 151006Z 31008KT 09/M00 A3039 RMK A01 T00871001  RH  054%=      5-min Rain = 0
KCA2 151007Z 30008KT 09/M00 A3039 RMK A01 T00861002  RH  054%=      5-min Rain = 0
KCA2 151008Z 31007KT 09/M00 A3039 RMK A01 T00861001  RH  054%=      5-min Rain = 0
KCA2 151009Z 31006KT 09/M00 A3039 RMK A01 T00851001  RH  055%=      5-min Rain = 0
KCA2 151010Z 32005KT 08/M00 A3039 RMK A01 T00841001  RH  055%=      5-min Rain = 0
KCA2 151011Z 32006KT 08/00 A3039 RMK A01 T00830001  RH  056%=      5-min Rain = 0
KCA2 151012Z 32005KT 08/00 A3039 RMK A01 T00810001  RH  057%=      5-min Rain = 0
KCA2 151013Z 33005KT 08/00 A3039 RMK A01 T00790002  RH  058%=      5-min Rain = 0
KCA2 151014Z 33005KT 08/00 A3039 RMK A01 T00780002  RH  059%=      5-min Rain = 0
KCA2 151015Z 33005KT 08/00 A3039 RMK A01 T00770002  RH  059%=      5-min Rain = 0
KCA2 151016Z 32005KT 08/00 A3039 RMK A01 T00780002  RH  059%=      5-min Rain = 0
KCA2 151017Z 32005KT 08/00 A3039 RMK A01 T00780002  RH  059%=      5-min Rain = 0
KCA2 151018Z 33005KT 08/00 A3039 RMK A01 T00780002  RH  059%=      5-min Rain = 0
KCA2 151019Z 33005KT 08/00 A3039 RMK A01 T00770003  RH  059%=      5-min Rain = 0
KCA2 151020Z 33006KT 08/00 A3039 RMK A01 T00770003  RH  059%=      5-min Rain = 0
KCA2 151021Z 32006KT 08/00 A3039 RMK A01 T00770002  RH  059%=      5-min Rain = 0
KCA2 151022Z 33005KT 08/00 A3039 RMK A01 T00770002  RH  059%=      5-min Rain = 0
KCA2 151023Z 32005KT 08/00 A3039 RMK A01 T00770002  RH  059%=      5-min Rain = 0
KCA2 151024Z 32004KT 08/00 A3039 RMK A01 T00770002  RH  059%=      5-min Rain = 0
KCA2 151025Z 32004KT 08/00 A3039 RMK A01 T00770003  RH  059%=      5-min Rain = 0
KCA2 151026Z 31005KT 08/00 A3039 RMK A01 T00760002  RH  059%=      5-min Rain = 0
KCA2 151027Z 31005KT 08/00 A3039 RMK A01 T00760002  RH  060%=      5-min Rain = 0
KCA2 151028Z 31006KT 08/00 A3039 RMK A01 T00760003  RH  060%=      5-min Rain = 0
KCA2 151029Z 31007KT 08/00 A3039 RMK A01 T00770000  RH  059%=      5-min Rain = 0
KCA2 151030Z 30008KT 08/00 A3039 RMK A01 T008000-0  RH  057%=      5-min Rain = 0
KCA2 151031Z 30008KT 08/M00 A3039 RMK A01 T00821001  RH  056%=      5-min Rain = 0
KCA2 151032Z 30006KT 08/M00 A3039 RMK A01 T00831002  RH  055%=      5-min Rain = 0
KCA2 151033Z 31005KT 08/M00 A3039 RMK A01 T00841001  RH  055%=      5-min Rain = 0
KCA2 151034Z 32004KT 08/00 A3039 RMK A01 T00830000  RH  056%=      5-min Rain = 0
KCA2 151035Z 32006KT 08/00 A3039 RMK A01 T00790001  RH  057%=      5-min Rain = 0
KCA2 151036Z 30006KT 08/00 A3039 RMK A01 T007800-0  RH  058%=      5-min Rain = 0
KCA2 151037Z 30006KT 08/M00 A3039 RMK A01 T00791001  RH  057%=      5-min Rain = 0
KCA2 151038Z 31007KT 08/M00 A3039 RMK A01 T00801001  RH  056%=      5-min Rain = 0
KCA2 151039Z 31007KT 08/M00 A3039 RMK A01 T00821002  RH  056%=      5-min Rain = 0
KCA2 151040Z 31008KT 08/M00 A3039 RMK A01 T00831001  RH  055%=      5-min Rain = 0
KCA2 151041Z 30008KT 08/M00 A3039 RMK A01 T00841003  RH  054%=      5-min Rain = 0
KCA2 151042Z 30008KT 09/M00 A3039 RMK A01 T00851003  RH  054%=      5-min Rain = 0
KCA2 151043Z 31006KT 09/M00 A3039 RMK A01 T00851003  RH  054%=      5-min Rain = 0
KCA2 151044Z 32005KT 08/M00 A3039 RMK A01 T00841001  RH  055%=      5-min Rain = 0
KCA2 151045Z 32005KT 08/M00 A3039 RMK A01 T00821001  RH  056%=      5-min Rain = 0
KCA2 151046Z 32004KT 08/00 A3039 RMK A01 T008000-0  RH  057%=      5-min Rain = 0
KCA2 151047Z 31005KT 08/00 A3039 RMK A01 T00780000  RH  058%=      5-min Rain = 0
KCA2 151048Z 30006KT 08/M00 A3039 RMK A01 T00771001  RH  058%=      5-min Rain = 0
KCA2 151049Z 31007KT 08/M00 A3039 RMK A01 T00781002  RH  057%=      5-min Rain = 0
KCA2 151050Z 31006KT 08/M00 A3039 RMK A01 T00801002  RH  056%=      5-min Rain = 0
KCA2 151051Z 30007KT 08/M00 A3039 RMK A01 T00821002  RH  055%=      5-min Rain = 0
KCA2 151052Z 30007KT 08/M00 A3039 RMK A01 T00831002  RH  055%=      5-min Rain = 0
KCA2 151053Z 30007KT 08/M00 A3039 RMK A01 T00841002  RH  055%=      5-min Rain = 0
KCA2 151054Z 31006KT 08/M00 A3039 RMK A01 T00841003  RH  055%=      5-min Rain = 0
KCA2 151055Z 32004KT 08/M00 A3039 RMK A01 T00831002  RH  055%=      5-min Rain = 0
KCA2 151056Z 31004KT 08/00 A3039 RMK A01 T008200-0  RH  056%=      5-min Rain = 0
KCA2 151057Z 31004KT 08/M00 A3039 RMK A01 T00801001  RH  056%=      5-min Rain = 0
KCA2 151058Z 32004KT 08/M00 A3039 RMK A01 T00791001  RH  057%=      5-min Rain = 0
KCA2 151059Z 31005KT 08/00 A3039 RMK A01 T00780000  RH  058%=      5-min Rain = 0
KCA2 151100Z 31005KT 08/M00 A3039 RMK A01 T00771002  RH  057%=      5-min Rain = 0
KCA2 151101Z 31005KT 08/M00 A3039 RMK A01 T00781001  RH  057%=      5-min Rain = 0
KCA2 151102Z 32004KT 08/M00 A3039 RMK A01 T00781001  RH  057%=      5-min Rain = 0
KCA2 151103Z 33005KT 08/00 A3039 RMK A01 T00780000  RH  058%=      5-min Rain = 0
KCA2 151104Z 33005KT 08/00 A3039 RMK A01 T00770000  RH  058%=      5-min Rain = 0
KCA2 151105Z 32005KT 08/00 A3039 RMK A01 T00760000  RH  059%=      5-min Rain = 0
KCA2 151106Z 33004KT 08/00 A3039 RMK A01 T00750000  RH  059%=      5-min Rain = 0
KCA2 151107Z 33005KT 08/00 A3039 RMK A01 T00750001  RH  059%=      5-min Rain = 0
KCA2 151108Z 33005KT 08/00 A3039 RMK A01 T00750001  RH  059%=      5-min Rain = 0
KCA2 151109Z 32004KT 08/00 A3039 RMK A01 T00750001  RH  060%=      5-min Rain = 0
KCA2 151110Z 33005KT 07/00 A3039 RMK A01 T00740000  RH  059%=      5-min Rain = 0
KCA2 151111Z 32005KT 07/00 A3039 RMK A01 T007400-0  RH  059%=      5-min Rain = 0
KCA2 151112Z 33005KT 07/00 A3039 RMK A01 T00740000  RH  059%=      5-min Rain = 0
KCA2 151113Z 33006KT 07/00 A3039 RMK A01 T00740000  RH  059%=      5-min Rain = 0
KCA2 151114Z 32006KT 08/00 A3039 RMK A01 T007500-0  RH  059%=      5-min Rain = 0
KCA2 151115Z 32005KT 08/00 A3039 RMK A01 T007500-0  RH  059%=      5-min Rain = 0
KCA2 151116Z 32005KT 08/00 A3039 RMK A01 T00760000  RH  059%=      5-min Rain = 0
KCA2 151117Z 32005KT 08/00 A3039 RMK A01 T00750001  RH  059%=      5-min Rain = 0
KCA2 151118Z 32004KT 07/00 A3039 RMK A01 T00740001  RH  059%=      5-min Rain = 0
KCA2 151119Z 32005KT 07/00 A3039 RMK A01 T00740001  RH  060%=      5-min Rain = 0
KCA2 151120Z 33004KT 07/00 A3039 RMK A01 T00730001  RH  060%=      5-min Rain = 0
KCA2 151121Z 33003KT 07/00 A3039 RMK A01 T00730001  RH  060%=      5-min Rain = 0
KCA2 151122Z 33003KT 07/00 A3039 RMK A01 T00730001  RH  060%=      5-min Rain = 0
KCA2 151123Z 34004KT 07/00 A3039 RMK A01 T00720001  RH  061%=      5-min Rain = 0
KCA2 151124Z 34005KT 07/00 A3039 RMK A01 T00720001  RH  061%=      5-min Rain = 0
KCA2 151125Z 33005KT 07/00 A3039 RMK A01 T00720001  RH  060%=      5-min Rain = 0
KCA2 151126Z 34004KT 07/00 A3039 RMK A01 T00730001  RH  060%=      5-min Rain = 0
KCA2 151127Z 33004KT 07/00 A3039 RMK A01 T00730001  RH  060%=      5-min Rain = 0
KCA2 151128Z 34004KT 07/00 A3039 RMK A01 T00730003  RH  061%=      5-min Rain = 0
KCA2 151129Z 34003KT 07/01 A3039 RMK A01 T00720005  RH  062%=      5-min Rain = 0
KCA2 151130Z 34003KT 07/01 A3039 RMK A01 T00690005  RH  064%=      5-min Rain = 0
KCA2 151131Z 35003KT 07/01 A3039 RMK A01 T00660005  RH  065%=      5-min Rain = 0
KCA2 151132Z 35003KT 06/01 A3039 RMK A01 T00640006  RH  066%=      5-min Rain = 0
KCA2 151133Z 35003KT 06/01 A3039 RMK A01 T00630006  RH  067%=      5-min Rain = 0
KCA2 151134Z 36003KT 06/01 A3039 RMK A01 T00620007  RH  068%=      5-min Rain = 0
KCA2 151135Z 36003KT 06/01 A3039 RMK A01 T00610007  RH  069%=      5-min Rain = 0
KCA2 151136Z 35003KT 06/01 A3039 RMK A01 T00590007  RH  069%=      5-min Rain = 0
KCA2 151137Z 35003KT 06/01 A3039 RMK A01 T00590008  RH  070%=      5-min Rain = 0
KCA2 151138Z 35003KT 06/01 A3039 RMK A01 T00580008  RH  070%=      5-min Rain = 0
KCA2 151139Z 34004KT 06/01 A3039 RMK A01 T00580008  RH  070%=      5-min Rain = 0
KCA2 151140Z 35004KT 06/01 A3039 RMK A01 T00570008  RH  071%=      5-min Rain = 0
KCA2 151141Z 34004KT 06/01 A3039 RMK A01 T00570008  RH  071%=      5-min Rain = 0
KCA2 151142Z 34004KT 06/01 A3039 RMK A01 T00560008  RH  071%=      5-min Rain = 0
KCA2 151143Z 34004KT 06/01 A3039 RMK A01 T00570008  RH  071%=      5-min Rain = 0
KCA2 151144Z 34004KT 06/01 A3039 RMK A01 T00570008  RH  071%=      5-min Rain = 0
KCA2 151145Z 33005KT 06/01 A3039 RMK A01 T00570008  RH  071%=      5-min Rain = 0
KCA2 151146Z 33004KT 06/01 A3039 RMK A01 T00580008  RH  070%=      5-min Rain = 0
KCA2 151147Z 34004KT 06/01 A3039 RMK A01 T00590007  RH  069%=      5-min Rain = 0
KCA2 151148Z 32005KT 06/01 A3039 RMK A01 T00600006  RH  068%=      5-min Rain = 0
KCA2 151149Z 32005KT 06/00 A3039 RMK A01 T00630004  RH  066%=      5-min Rain = 0
KCA2 151150Z 32004KT 07/00 A3039 RMK A01 T00650004  RH  065%=      5-min Rain = 0
KCA2 151151Z 32005KT 07/00 A3039 RMK A01 T00650004  RH  065%=      5-min Rain = 0
KCA2 151152Z 32005KT 07/00 A3039 RMK A01 T00650003  RH  065%=      5-min Rain = 0
KCA2 151153Z 32004KT 07/00 A3039 RMK A01 T00650003  RH  064%=      5-min Rain = 0
KCA2 151154Z 32004KT 07/00 A3039 RMK A01 T00650004  RH  065%=      5-min Rain = 0
KCA2 151155Z 32006KT 06/00 A3039 RMK A01 T00640003  RH  065%=      5-min Rain = 0
KCA2 151156Z 32005KT 07/00 A3039 RMK A01 T00650002  RH  064%=      5-min Rain = 0
KCA2 151157Z 32004KT 07/00 A3039 RMK A01 T00660003  RH  064%=      5-min Rain = 0
KCA2 151158Z 32004KT 07/00 A3039 RMK A01 T00650003  RH  064%=      5-min Rain = 0
KCA2 151159Z 33004KT 07/00 A3039 RMK A01 T00650002  RH  064%=      5-min Rain = 0
KCA2 151200Z 33004KT 07/00 A3039 RMK A01 T00660002  RH  063%=      5-min Rain = 0
KCA2 151201Z 33003KT 07/00 A3039 RMK A01 T00670002  RH  063%=      5-min Rain = 0
KCA2 151202Z 35003KT 07/00 A3039 RMK A01 T00670003  RH  063%=      5-min Rain = 0
KCA2 151203Z 35003KT 07/00 A3039 RMK A01 T00670002  RH  064%=      5-min Rain = 0
KCA2 151204Z 35003KT 07/00 A3039 RMK A01 T00660004  RH  064%=      5-min Rain = 0
KCA2 151205Z 00002KT 07/01 A3039 RMK A01 T00650006  RH  066%=      5-min Rain = 0
KCA2 151206Z 01002KT 06/01 A3039 RMK A01 T00620008  RH  068%=      5-min Rain = 0
KCA2 151207Z 01003KT 06/01 A3039 RMK A01 T00570008  RH  071%=      5-min Rain = 0
KCA2 151208Z 00003KT 05/01 A3039 RMK A01 T00530006  RH  072%=      5-min Rain = 0
KCA2 151209Z 36003KT 05/01 A3039 RMK A01 T00520006  RH  072%=      5-min Rain = 0
KCA2 151210Z 36003KT 05/01 A3039 RMK A01 T00520007  RH  073%=      5-min Rain = 0
KCA2 151211Z 35003KT 05/01 A3039 RMK A01 T00520006  RH  072%=      5-min Rain = 0
KCA2 151212Z 36003KT 05/01 A3039 RMK A01 T00520006  RH  072%=      5-min Rain = 0
KCA2 151213Z 36003KT 05/01 A3039 RMK A01 T00530007  RH  072%=      5-min Rain = 0
KCA2 151214Z 35003KT 05/01 A3039 RMK A01 T00530007  RH  072%=      5-min Rain = 0
KCA2 151215Z 35003KT 05/01 A3039 RMK A01 T00530007  RH  072%=      5-min Rain = 0
KCA2 151216Z 35003KT 05/01 A3039 RMK A01 T00530007  RH  072%=      5-min Rain = 0
KCA2 151217Z 35003KT 05/01 A3039 RMK A01 T00530007  RH  072%=      5-min Rain = 0
KCA2 151218Z 35003KT 05/01 A3039 RMK A01 T00530007  RH  072%=      5-min Rain = 0
KCA2 151219Z 35003KT 05/01 A3039 RMK A01 T00530007  RH  072%=      5-min Rain = 0
KCA2 151220Z 35003KT 05/01 A3039 RMK A01 T00540007  RH  072%=      5-min Rain = 0
KCA2 151221Z 35004KT 05/01 A3039 RMK A01 T00530007  RH  072%=      5-min Rain = 0
KCA2 151222Z 34004KT 05/01 A3039 RMK A01 T00540006  RH  071%=      5-min Rain = 0
KCA2 151223Z 35005KT 06/01 A3039 RMK A01 T00550006  RH  071%=      5-min Rain = 0
KCA2 151224Z 35005KT 06/01 A3039 RMK A01 T00550006  RH  071%=      5-min Rain = 0
KCA2 151225Z 35004KT 06/01 A3039 RMK A01 T00560006  RH  070%=      5-min Rain = 0
KCA2 151226Z 34003KT 06/01 A3039 RMK A01 T00560006  RH  070%=      5-min Rain = 0
KCA2 151227Z 35004KT 06/01 A3039 RMK A01 T00560006  RH  070%=      5-min Rain = 0
KCA2 151228Z 34004KT 06/01 A3039 RMK A01 T00550006  RH  071%=      5-min Rain = 0
KCA2 151229Z 34004KT 06/01 A3039 RMK A01 T00550006  RH  071%=      5-min Rain = 0
KCA2 151230Z 35004KT 06/01 A3039 RMK A01 T00550006  RH  071%=      5-min Rain = 0
KCA2 151231Z 35005KT 06/01 A3039 RMK A01 T00560006  RH  070%=      5-min Rain = 0
KCA2 151232Z 35005KT 06/01 A3039 RMK A01 T00570007  RH  070%=      5-min Rain = 0
KCA2 151233Z 35005KT 06/01 A3039 RMK A01 T00570007  RH  070%=      5-min Rain = 0
KCA2 151234Z 35005KT 06/01 A3039 RMK A01 T00570006  RH  070%=      5-min Rain = 0
KCA2 151235Z 35005KT 06/01 A3039 RMK A01 T00570007  RH  070%=      5-min Rain = 0
KCA2 151236Z 34006KT 06/01 A3039 RMK A01 T00570007  RH  070%=      5-min Rain = 0
KCA2 151237Z 34006KT 06/01 A3039 RMK A01 T00570006  RH  070%=      5-min Rain = 0
KCA2 151238Z 35006KT 06/01 A3039 RMK A01 T00570006  RH  069%=      5-min Rain = 0
KCA2 151239Z 35006KT 06/01 A3039 RMK A01 T00570005  RH  069%=      5-min Rain = 0
KCA2 151240Z 35006KT 06/01 A3039 RMK A01 T00580005  RH  069%=      5-min Rain = 0
KCA2 151241Z 35007KT 06/01 A3039 RMK A01 T00580006  RH  069%=      5-min Rain = 0
KCA2 151242Z 34007KT 06/01 A3039 RMK A01 T00590006  RH  069%=      5-min Rain = 0
KCA2 151243Z 34007KT 06/01 A3039 RMK A01 T00580005  RH  068%=      5-min Rain = 0
KCA2 151244Z 34007KT 06/01 A3039 RMK A01 T00580005  RH  068%=      5-min Rain = 0
KCA2 151245Z 34007KT 06/01 A3039 RMK A01 T00580005  RH  068%=      5-min Rain = 0
KCA2 151246Z 34007KT 06/00 A3039 RMK A01 T00580004  RH  068%=      5-min Rain = 0
KCA2 151247Z 34007KT 06/00 A3039 RMK A01 T00580004  RH  068%=      5-min Rain = 0
KCA2 151248Z 34007KT 06/00 A3039 RMK A01 T00580004  RH  068%=      5-min Rain = 0
KCA2 151249Z 34007KT 06/00 A3039 RMK A01 T00580004  RH  068%=      5-min Rain = 0
KCA2 151250Z 34006KT 06/00 A304 RMK A01 T00580004  RH  068%=      5-min Rain = 0
KCA2 151251Z 34006KT 06/00 A304 RMK A01 T00580004  RH  068%=      5-min Rain = 0
KCA2 151252Z 34006KT 06/00 A304 RMK A01 T00580004  RH  069%=      5-min Rain = 0
KCA2 151253Z 34006KT 06/00 A304 RMK A01 T00570004  RH  069%=      5-min Rain = 0
KCA2 151254Z 33005KT 06/00 A304 RMK A01 T00570004  RH  069%=      5-min Rain = 0
KCA2 151255Z 33006KT 06/00 A304 RMK A01 T00570004  RH  069%=      5-min Rain = 0
KCA2 151256Z 33005KT 06/00 A304 RMK A01 T00560004  RH  069%=      5-min Rain = 0
KCA2 151257Z 33005KT 06/00 A304 RMK A01 T00550004  RH  070%=      5-min Rain = 0
KCA2 151258Z 33006KT 06/00 A304 RMK A01 T00550004  RH  070%=      5-min Rain = 0
KCA2 151259Z 33006KT 06/00 A304 RMK A01 T00550004  RH  070%=      5-min Rain = 0
KCA2 151300Z 34006KT 06/00 A304 RMK A01 T00550004  RH  069%=      5-min Rain = 0
KCA2 151301Z 34006KT 06/00 A304 RMK A01 T00570003  RH  069%=      5-min Rain = 0
KCA2 151302Z 34006KT 06/00 A304 RMK A01 T00570003  RH  068%=      5-min Rain = 0
KCA2 151303Z 34006KT 06/00 A304 RMK A01 T00580003  RH  068%=      5-min Rain = 0
KCA2 151304Z 33006KT 06/00 A304 RMK A01 T00580003  RH  068%=      5-min Rain = 0
KCA2 151305Z 34006KT 06/00 A304 RMK A01 T00580003  RH  067%=      5-min Rain = 0
KCA2 151306Z 34005KT 06/00 A304 RMK A01 T00590003  RH  067%=      5-min Rain = 0
KCA2 151307Z 34006KT 06/00 A304 RMK A01 T00590002  RH  067%=      5-min Rain = 0
KCA2 151308Z 34005KT 06/00 A304 RMK A01 T00590002  RH  067%=      5-min Rain = 0
KCA2 151309Z 34005KT 06/00 A304 RMK A01 T00600002  RH  067%=      5-min Rain = 0
KCA2 151310Z 34005KT 06/00 A304 RMK A01 T00600002  RH  066%=      5-min Rain = 0
KCA2 151311Z 34004KT 06/00 A304 RMK A01 T00610002  RH  066%=      5-min Rain = 0
KCA2 151312Z 34004KT 06/00 A304 RMK A01 T00610002  RH  066%=      5-min Rain = 0
KCA2 151313Z 34004KT 06/00 A304 RMK A01 T00610002  RH  066%=      5-min Rain = 0
KCA2 151314Z 34002KT 06/00 A304 RMK A01 T00610003  RH  067%=      5-min Rain = 0
KCA2 151315Z 00001KT 06/01 A304 RMK A01 T00580006  RH  069%=      5-min Rain = 0
KCA2 151316Z 03001KT 05/01 A304 RMK A01 T00540006  RH  071%=      5-min Rain = 0
KCA2 151317Z 35004KT 05/01 A304 RMK A01 T00520006  RH  072%=      5-min Rain = 0
KCA2 151318Z 36003KT 05/01 A304 RMK A01 T00510006  RH  073%=      5-min Rain = 0
KCA2 151319Z 35004KT 05/01 A304 RMK A01 T00500005  RH  073%=      5-min Rain = 0
KCA2 151320Z 35004KT 05/00 A304 RMK A01 T00510004  RH  072%=      5-min Rain = 0
KCA2 151321Z 35005KT 05/00 A304 RMK A01 T00540004  RH  070%=      5-min Rain = 0
KCA2 151322Z 35005KT 06/00 A304 RMK A01 T00570004  RH  069%=      5-min Rain = 0
KCA2 151323Z 35004KT 06/00 A304 RMK A01 T00580004  RH  068%=      5-min Rain = 0
KCA2 151324Z 34005KT 06/00 A304 RMK A01 T00590003  RH  068%=      5-min Rain = 0
KCA2 151325Z 34004KT 06/00 A304 RMK A01 T00590003  RH  067%=      5-min Rain = 0
KCA2 151326Z 34005KT 06/00 A3041 RMK A01 T00590003  RH  067%=      5-min Rain = 0
KCA2 151327Z 34005KT 06/00 A3041 RMK A01 T00590003  RH  067%=      5-min Rain = 0
KCA2 151328Z 34005KT 06/00 A3041 RMK A01 T00580003  RH  068%=      5-min Rain = 0
KCA2 151329Z 34005KT 06/00 A3041 RMK A01 T00580003  RH  068%=      5-min Rain = 0
KCA2 151330Z 34005KT 06/00 A3041 RMK A01 T00580003  RH  068%=      5-min Rain = 0
KCA2 151331Z 34005KT 06/00 A3041 RMK A01 T00570004  RH  068%=      5-min Rain = 0
KCA2 151332Z 34004KT 06/00 A3041 RMK A01 T00570004  RH  069%=      5-min Rain = 0
KCA2 151333Z 34004KT 06/00 A3041 RMK A01 T00560004  RH  069%=      5-min Rain = 0
KCA2 151334Z 34004KT 05/00 A3041 RMK A01 T00540004  RH  070%=      5-min Rain = 0
KCA2 151335Z 34003KT 05/00 A3041 RMK A01 T00530004  RH  070%=      5-min Rain = 0
KCA2 151336Z 35004KT 05/00 A3041 RMK A01 T00520003  RH  071%=      5-min Rain = 0
KCA2 151337Z 35003KT 05/00 A3041 RMK A01 T00530004  RH  071%=      5-min Rain = 0
KCA2 151338Z 35003KT 05/01 A3041 RMK A01 T00540006  RH  071%=      5-min Rain = 0
KCA2 151339Z 35003KT 06/01 A3041 RMK A01 T00550008  RH  072%=      5-min Rain = 0
KCA2 151340Z 34003KT 06/01 A3041 RMK A01 T00550010  RH  073%=      5-min Rain = 0
KCA2 151341Z 35003KT 05/01 A3041 RMK A01 T00540009  RH  073%=      5-min Rain = 0
KCA2 151342Z 35002KT 05/01 A3041 RMK A01 T00530008  RH  073%=      5-min Rain = 0
KCA2 151343Z 36002KT 05/01 A3041 RMK A01 T00520009  RH  074%=      5-min Rain = 0
KCA2 151344Z 35002KT 05/01 A3041 RMK A01 T00510008  RH  074%=      5-min Rain = 0
KCA2 151345Z 35002KT 05/01 A3041 RMK A01 T00520007  RH  073%=      5-min Rain = 0
KCA2 151346Z 35003KT 05/01 A3041 RMK A01 T00520007  RH  073%=      5-min Rain = 0
KCA2 151347Z 34002KT 05/01 A3041 RMK A01 T00530008  RH  073%=      5-min Rain = 0
KCA2 151348Z 35002KT 05/01 A3041 RMK A01 T00530009  RH  073%=      5-min Rain = 0
KCA2 151349Z 34003KT 05/01 A3041 RMK A01 T00540009  RH  073%=      5-min Rain = 0
KCA2 151350Z 34003KT 05/01 A3041 RMK A01 T00540010  RH  073%=      5-min Rain = 0
KCA2 151351Z 34003KT 06/01 A3041 RMK A01 T00560008  RH  071%=      5-min Rain = 0
KCA2 151352Z 34002KT 06/01 A3041 RMK A01 T00570007  RH  070%=      5-min Rain = 0
KCA2 151353Z 30002KT 06/01 A3041 RMK A01 T00580008  RH  070%=      5-min Rain = 0
KCA2 151354Z 24002KT 06/01 A3041 RMK A01 T00560010  RH  072%=      5-min Rain = 0
KCA2 151355Z 26002KT 05/01 A3041 RMK A01 T00520008  RH  073%=      5-min Rain = 0
KCA2 151356Z 29002KT 05/01 A3041 RMK A01 T00490007  RH  074%=      5-min Rain = 0
KCA2 151357Z 30003KT 05/01 A3041 RMK A01 T00490006  RH  074%=      5-min Rain = 0
KCA2 151358Z 30003KT 05/01 A3041 RMK A01 T00490007  RH  074%=      5-min Rain = 0
KCA2 151359Z 29003KT 05/01 A3041 RMK A01 T00490007  RH  074%=      5-min Rain = 0
KCA2 151400Z 28001KT 05/01 A3041 RMK A01 T00500008  RH  074%=      5-min Rain = 0
KCA2 151401Z 29002KT 05/01 A3041 RMK A01 T00500008  RH  075%=      5-min Rain = 0
KCA2 151402Z 27001KT 05/01 A3041 RMK A01 T00500008  RH  074%=      5-min Rain = 0
KCA2 151403Z 29001KT 05/01 A3041 RMK A01 T00510011  RH  076%=      5-min Rain = 0
KCA2 151404Z 29001KT 05/01 A3041 RMK A01 T00510011  RH  075%=      5-min Rain = 0
KCA2 151405Z 29001KT 05/01 A3041 RMK A01 T00510009  RH  075%=      5-min Rain = 0
KCA2 151406Z 30001KT 05/01 A3041 RMK A01 T00510010  RH  075%=      5-min Rain = 0
KCA2 151407Z 31001KT 05/01 A3041 RMK A01 T00520008  RH  073%=      5-min Rain = 0
KCA2 151408Z 32001KT 05/01 A3041 RMK A01 T00530008  RH  072%=      5-min Rain = 0
KCA2 151409Z 33002KT 06/01 A3041 RMK A01 T00550007  RH  072%=      5-min Rain = 0
KCA2 151410Z 34001KT 06/01 A3041 RMK A01 T00560009  RH  071%=      5-min Rain = 0
KCA2 151411Z 33001KT 06/01 A3041 RMK A01 T00580009  RH  071%=      5-min Rain = 0
KCA2 151412Z 35001KT 06/01 A3041 RMK A01 T00590009  RH  070%=      5-min Rain = 0
KCA2 151413Z 30001KT 06/01 A3041 RMK A01 T00600010  RH  070%=      5-min Rain = 0
KCA2 151414Z 31002KT 06/01 A3042 RMK A01 T00610009  RH  069%=      5-min Rain = 0
KCA2 151415Z 30002KT 06/01 A3042 RMK A01 T00620009  RH  069%=      5-min Rain = 0
KCA2 151416Z 29001KT 06/01 A3042 RMK A01 T00630008  RH  068%=      5-min Rain = 0
KCA2 151417Z 31001KT 06/01 A3042 RMK A01 T00630008  RH  068%=      5-min Rain = 0
KCA2 151418Z 31001KT 06/01 A3042 RMK A01 T00630008  RH  068%=      5-min Rain = 0
KCA2 151419Z 31002KT 06/01 A3042 RMK A01 T00640009  RH  068%=      5-min Rain = 0
KCA2 151420Z 31002KT 06/01 A3042 RMK A01 T00640010  RH  068%=      5-min Rain = 0
KCA2 151421Z 30003KT 07/01 A3042 RMK A01 T00650009  RH  068%=      5-min Rain = 0
KCA2 151422Z 32002KT 07/01 A3042 RMK A01 T00650009  RH  067%=      5-min Rain = 0
KCA2 151423Z 31001KT 07/01 A3042 RMK A01 T00670010  RH  067%=      5-min Rain = 0
KCA2 151424Z 31002KT 07/01 A3042 RMK A01 T00670009  RH  066%=      5-min Rain = 0
KCA2 151425Z 31002KT 07/01 A3042 RMK A01 T00680009  RH  066%=      5-min Rain = 0
KCA2 151426Z 32001KT 07/01 A3042 RMK A01 T00690010  RH  066%=      5-min Rain = 0
KCA2 151427Z 32002KT 07/01 A3042 RMK A01 T00700009  RH  065%=      5-min Rain = 0
KCA2 151428Z 32002KT 07/01 A3042 RMK A01 T00700008  RH  065%=      5-min Rain = 0
KCA2 151429Z 33001KT 07/01 A3042 RMK A01 T00710010  RH  065%=      5-min Rain = 0
KCA2 151430Z 33000KT 07/01 A3042 RMK A01 T00710011  RH  065%=      5-min Rain = 0
KCA2 151431Z 00000KT 07/01 A3042 RMK A01 T00720012  RH  065%=      5-min Rain = 0
KCA2 151432Z 24000KT 07/01 A3042 RMK A01 T00730012  RH  065%=      5-min Rain = 0
KCA2 151433Z 00000KT 07/01 A3042 RMK A01 T00740013  RH  065%=      5-min Rain = 0
KCA2 151434Z 00000KT 07/01 A3042 RMK A01 T00740013  RH  065%=      5-min Rain = 0
KCA2 151435Z 00000KT 08/01 A3042 RMK A01 T00750012  RH  064%=      5-min Rain = 0
KCA2 151436Z 00000KT 08/01 A3042 RMK A01 T00770013  RH  064%=      5-min Rain = 0
KCA2 151437Z 00000KT 08/01 A3042 RMK A01 T00790012  RH  063%=      5-min Rain = 0
KCA2 151438Z 00000KT 08/01 A3042 RMK A01 T00800011  RH  062%=      5-min Rain = 0
KCA2 151439Z 06000KT 08/01 A3042 RMK A01 T00800011  RH  062%=      5-min Rain = 0
KCA2 151440Z 00000KT 08/01 A3042 RMK A01 T00800012  RH  062%=      5-min Rain = 0
KCA2 151441Z 32000KT 08/01 A3042 RMK A01 T00800012  RH  062%=      5-min Rain = 0
KCA2 151442Z 33001KT 08/01 A3042 RMK A01 T00810012  RH  062%=      5-min Rain = 0
KCA2 151443Z 33002KT 08/01 A3042 RMK A01 T00810011  RH  061%=      5-min Rain = 0
KCA2 151444Z 34002KT 08/01 A3042 RMK A01 T00810011  RH  061%=      5-min Rain = 0
KCA2 151445Z 35002KT 08/01 A3042 RMK A01 T00810010  RH  061%=      5-min Rain = 0
KCA2 151446Z 01002KT 08/01 A3042 RMK A01 T00810011  RH  061%=      5-min Rain = 0
KCA2 151447Z 00002KT 08/01 A3042 RMK A01 T00820011  RH  061%=      5-min Rain = 0
KCA2 151448Z 35001KT 08/01 A3042 RMK A01 T00820011  RH  061%=      5-min Rain = 0
KCA2 151449Z 36001KT 08/01 A3042 RMK A01 T00830011  RH  061%=      5-min Rain = 0
KCA2 151450Z 35001KT 08/01 A3042 RMK A01 T00840011  RH  060%=      5-min Rain = 0
KCA2 151451Z 34002KT 09/01 A3042 RMK A01 T00850008  RH  059%=      5-min Rain = 0
KCA2 151452Z 36002KT 08/01 A3042 RMK A01 T00840008  RH  059%=      5-min Rain = 0
KCA2 151453Z 00002KT 09/01 A3042 RMK A01 T00850007  RH  058%=      5-min Rain = 0
KCA2 151454Z 35002KT 09/01 A3042 RMK A01 T00860008  RH  058%=      5-min Rain = 0
KCA2 151455Z 01002KT 09/01 A3042 RMK A01 T00860006  RH  057%=      5-min Rain = 0
KCA2 151456Z 01002KT 09/00 A3042 RMK A01 T00860004  RH  056%=      5-min Rain = 0
KCA2 151457Z 35002KT 09/01 A3042 RMK A01 T00870007  RH  057%=      5-min Rain = 0
KCA2 151458Z 32003KT 09/01 A3042 RMK A01 T00880005  RH  056%=      5-min Rain = 0
KCA2 151459Z 34003KT 09/00 A3042 RMK A01 T00870003  RH  056%=      5-min Rain = 0
KCA2 151500Z 33003KT 09/00 A3042 RMK A01 T00870002  RH  055%=      5-min Rain = 0
KCA2 151501Z 33003KT 09/00 A3042 RMK A01 T00870003  RH  056%=      5-min Rain = 0
KCA2 151502Z 34003KT 09/00 A3042 RMK A01 T00870003  RH  056%=      5-min Rain = 0
KCA2 151503Z 34003KT 09/00 A3042 RMK A01 T00870003  RH  055%=      5-min Rain = 0
KCA2 151504Z 32003KT 09/00 A3042 RMK A01 T00870003  RH  055%=      5-min Rain = 0
KCA2 151505Z 32003KT 09/00 A3042 RMK A01 T00880003  RH  055%=      5-min Rain = 0
KCA2 151506Z 32003KT 09/00 A3042 RMK A01 T00880004  RH  055%=      5-min Rain = 0
KCA2 151507Z 31003KT 09/00 A3042 RMK A01 T00890004  RH  055%=      5-min Rain = 0
KCA2 151508Z 33003KT 09/00 A3042 RMK A01 T00890002  RH  054%=      5-min Rain = 0
KCA2 151509Z 33002KT 09/00 A3042 RMK A01 T00890002  RH  054%=      5-min Rain = 0
KCA2 151510Z 31003KT 09/00 A3042 RMK A01 T00900004  RH  055%=      5-min Rain = 0
KCA2 151511Z 32003KT 09/00 A3042 RMK A01 T00910004  RH  054%=      5-min Rain = 0
KCA2 151512Z 31003KT 09/00 A3042 RMK A01 T00910003  RH  054%=      5-min Rain = 0
KCA2 151513Z 31004KT 09/00 A3042 RMK A01 T00910004  RH  054%=      5-min Rain = 0
KCA2 151514Z 32003KT 09/00 A3042 RMK A01 T00910004  RH  054%=      5-min Rain = 0
KCA2 151515Z 33004KT 09/01 A3042 RMK A01 T00930006  RH  054%=      5-min Rain = 0
KCA2 151516Z 31003KT 09/00 A3042 RMK A01 T00940004  RH  054%=      5-min Rain = 0
KCA2 151517Z 32005KT 09/01 A3042 RMK A01 T00940006  RH  054%=      5-min Rain = 0
KCA2 151518Z 30004KT 10/00 A3042 RMK A01 T00950003  RH  053%=      5-min Rain = 0
KCA2 151519Z 32004KT 10/00 A3042 RMK A01 T00950002  RH  052%=      5-min Rain = 0
KCA2 151520Z 33004KT 10/00 A3042 RMK A01 T00950001  RH  052%=      5-min Rain = 0
KCA2 151521Z 33004KT 09/M00 A3042 RMK A01 T00941001  RH  051%=      5-min Rain = 0
KCA2 151522Z 33004KT 09/00 A3042 RMK A01 T00940001  RH  052%=      5-min Rain = 0
KCA2 151523Z 32003KT 10/00 A3043 RMK A01 T00950002  RH  052%=      5-min Rain = 0
KCA2 151524Z 32004KT 10/00 A3042 RMK A01 T00960001  RH  051%=      5-min Rain = 0
KCA2 151525Z 32004KT 10/00 A3042 RMK A01 T009600-0  RH  051%=      5-min Rain = 0
KCA2 151526Z 31004KT 10/00 A3042 RMK A01 T009600-0  RH  051%=      5-min Rain = 0
KCA2 151527Z 34004KT 10/00 A3042 RMK A01 T009600-0  RH  051%=      5-min Rain = 0
KCA2 151528Z 34004KT 10/00 A3042 RMK A01 T00970002  RH  051%=      5-min Rain = 0
KCA2 151529Z 34004KT 10/00 A3042 RMK A01 T009800-0  RH  050%=      5-min Rain = 0
KCA2 151530Z 33003KT 10/00 A3043 RMK A01 T00980001  RH  051%=      5-min Rain = 0
KCA2 151531Z 34002KT 10/00 A3043 RMK A01 T00980003  RH  052%=      5-min Rain = 0
KCA2 151532Z 35003KT 10/00 A3043 RMK A01 T00990002  RH  051%=      5-min Rain = 0
KCA2 151533Z 35002KT 10/00 A3043 RMK A01 T01000001  RH  050%=      5-min Rain = 0
KCA2 151534Z 35004KT 10/00 A3043 RMK A01 T01000001  RH  050%=      5-min Rain = 0
KCA2 151535Z 35003KT 10/00 A3043 RMK A01 T01010003  RH  051%=      5-min Rain = 0
KCA2 151536Z 35003KT 10/00 A3043 RMK A01 T01020000  RH  049%=      5-min Rain = 0
KCA2 151537Z 34004KT 10/00 A3043 RMK A01 T01020002  RH  050%=      5-min Rain = 0
KCA2 151538Z 34003KT 10/00 A3043 RMK A01 T01020000  RH  049%=      5-min Rain = 0
KCA2 151539Z 32003KT 10/00 A3043 RMK A01 T01010002  RH  050%=      5-min Rain = 0
KCA2 151540Z 31003KT 10/00 A3043 RMK A01 T01010001  RH  050%=      5-min Rain = 0
KCA2 151541Z 30002KT 10/00 A3043 RMK A01 T01020003  RH  050%=      5-min Rain = 0
KCA2 151542Z 30002KT 10/00 A3043 RMK A01 T01030004  RH  050%=      5-min Rain = 0
KCA2 151543Z 33003KT 10/00 A3043 RMK A01 T01040002  RH  049%=      5-min Rain = 0
KCA2 151544Z 33003KT 10/00 A3043 RMK A01 T01040003  RH  049%=      5-min Rain = 0
KCA2 151545Z 32003KT 10/00 A3043 RMK A01 T01040003  RH  050%=      5-min Rain = 0
KCA2 151546Z 31002KT 10/00 A3043 RMK A01 T01030002  RH  049%=      5-min Rain = 0
KCA2 151547Z 34003KT 10/00 A3043 RMK A01 T01030003  RH  050%=      5-min Rain = 0
KCA2 151548Z 36003KT 10/00 A3043 RMK A01 T01030003  RH  050%=      5-min Rain = 0
KCA2 151549Z 00002KT 10/01 A3043 RMK A01 T01040005  RH  050%=      5-min Rain = 0
KCA2 151550Z 02001KT 11/01 A3043 RMK A01 T01060006  RH  050%=      5-min Rain = 0
KCA2 151551Z 02001KT 11/00 A3043 RMK A01 T01070004  RH  049%=      5-min Rain = 0
KCA2 151552Z 01002KT 11/00 A3043 RMK A01 T01070003  RH  048%=      5-min Rain = 0
KCA2 151553Z 00002KT 11/00 A3043 RMK A01 T01070003  RH  049%=      5-min Rain = 0
KCA2 151554Z 35003KT 11/01 A3043 RMK A01 T01070005  RH  049%=      5-min Rain = 0
KCA2 151555Z 30003KT 11/01 A3043 RMK A01 T01080005  RH  049%=      5-min Rain = 0
KCA2 151556Z 29003KT 11/00 A3043 RMK A01 T01080004  RH  049%=      5-min Rain = 0
KCA2 151557Z 33004KT 11/01 A3043 RMK A01 T01080005  RH  049%=      5-min Rain = 0
KCA2 151558Z 34004KT 11/01 A3043 RMK A01 T01090005  RH  048%=      5-min Rain = 0
KCA2 151559Z 32004KT 11/01 A3043 RMK A01 T01090005  RH  048%=      5-min Rain = 0
KCA2 151600Z 33003KT 11/00 A3043 RMK A01 T01090002  RH  047%=      5-min Rain = 0
KCA2 151601Z 33003KT 11/00 A3043 RMK A01 T01090004  RH  048%=      5-min Rain = 0
KCA2 151602Z 34002KT 11/01 A3043 RMK A01 T01110005  RH  048%=      5-min Rain = 0
KCA2 151603Z 35002KT 11/00 A3043 RMK A01 T01090001  RH  047%=      5-min Rain = 0
KCA2 151604Z 35002KT 11/00 A3043 RMK A01 T01090002  RH  048%=      5-min Rain = 0
KCA2 151605Z 34001KT 11/00 A3043 RMK A01 T01090001  RH  047%=      5-min Rain = 0
KCA2 151606Z 06001KT 11/00 A3043 RMK A01 T01090000  RH  047%=      5-min Rain = 0
KCA2 151607Z 30000KT 11/00 A3043 RMK A01 T01100002  RH  047%=      5-min Rain = 0
KCA2 151608Z 32003KT 11/00 A3043 RMK A01 T01110001  RH  047%=      5-min Rain = 0
KCA2 151609Z 34004KT 11/00 A3043 RMK A01 T01120002  RH  047%=      5-min Rain = 0
KCA2 151610Z 35003KT 11/00 A3043 RMK A01 T01140002  RH  046%=      5-min Rain = 0
KCA2 151611Z 34003KT 11/00 A3043 RMK A01 T01140001  RH  046%=      5-min Rain = 0
KCA2 151612Z 34003KT 11/00 A3043 RMK A01 T01140001  RH  046%=      5-min Rain = 0
KCA2 151613Z 02003KT 12/00 A3043 RMK A01 T01150002  RH  046%=      5-min Rain = 0
KCA2 151614Z 35003KT 12/M00 A3043 RMK A01 T01151001  RH  045%=      5-min Rain = 0
KCA2 151615Z 34004KT 12/00 A3043 RMK A01 T01160001  RH  045%=      5-min Rain = 0
KCA2 151616Z 35004KT 12/00 A3043 RMK A01 T01160002  RH  045%=      5-min Rain = 0
KCA2 151617Z 00003KT 12/00 A3043 RMK A01 T011600-0  RH  045%=      5-min Rain = 0
KCA2 151618Z 00003KT 12/00 A3043 RMK A01 T01150001  RH  045%=      5-min Rain = 0
KCA2 151619Z 33004KT 12/00 A3043 RMK A01 T01160002  RH  045%=      5-min Rain = 0
KCA2 151620Z 34003KT 12/00 A3043 RMK A01 T01170000  RH  045%=      5-min Rain = 0
KCA2 151621Z 34005KT 12/00 A3042 RMK A01 T01180002  RH  045%=      5-min Rain = 0
KCA2 151622Z 34004KT 12/00 A3042 RMK A01 T01190001  RH  044%=      5-min Rain = 0
KCA2 151623Z 33004KT 12/M00 A3042 RMK A01 T01181001  RH  044%=      5-min Rain = 0
KCA2 151624Z 34004KT 12/M00 A3042 RMK A01 T01161003  RH  044%=      5-min Rain = 0
KCA2 151625Z 35003KT 12/M00 A3042 RMK A01 T01151003  RH  044%=      5-min Rain = 0
KCA2 151626Z 34002KT 12/M00 A3042 RMK A01 T01151001  RH  045%=      5-min Rain = 0
KCA2 151627Z 01003KT 12/00 A3042 RMK A01 T011600-0  RH  045%=      5-min Rain = 0
KCA2 151628Z 33002KT 12/M00 A3042 RMK A01 T01171001  RH  044%=      5-min Rain = 0
KCA2 151629Z 35003KT 12/00 A3042 RMK A01 T01170001  RH  045%=      5-min Rain = 0
KCA2 151630Z 34004KT 12/00 A3042 RMK A01 T01180001  RH  045%=      5-min Rain = 0
KCA2 151631Z 33005KT 12/00 A3042 RMK A01 T01180001  RH  044%=      5-min Rain = 0
KCA2 151632Z 33004KT 12/00 A3042 RMK A01 T01190000  RH  044%=      5-min Rain = 0
KCA2 151633Z 34003KT 12/M00 A3042 RMK A01 T01181001  RH  044%=      5-min Rain = 0
KCA2 151634Z 00002KT 12/00 A3042 RMK A01 T01170000  RH  045%=      5-min Rain = 0
KCA2 151635Z 35003KT 12/00 A3042 RMK A01 T01180001  RH  044%=      5-min Rain = 0
KCA2 151636Z 01001KT 12/00 A3042 RMK A01 T011900-0  RH  044%=      5-min Rain = 0
KCA2 151637Z 01003KT 12/00 A3042 RMK A01 T01200000  RH  044%=      5-min Rain = 0
KCA2 151638Z 03003KT 12/M00 A3042 RMK A01 T01201001  RH  043%=      5-min Rain = 0
KCA2 151639Z 03003KT 12/M00 A3042 RMK A01 T01201001  RH  043%=      5-min Rain = 0
KCA2 151640Z 04003KT 12/M00 A3042 RMK A01 T01191001  RH  044%=      5-min Rain = 0
KCA2 151641Z 01003KT 12/00 A3042 RMK A01 T01190000  RH  044%=      5-min Rain = 0
KCA2 151642Z 04002KT 12/M00 A3042 RMK A01 T01191002  RH  043%=      5-min Rain = 0
KCA2 151643Z 07001KT 12/M00 A3042 RMK A01 T01191001  RH  043%=      5-min Rain = 0
KCA2 151644Z 03001KT 12/00 A3042 RMK A01 T01200004  RH  045%=      5-min Rain = 0
KCA2 151645Z 30002KT 12/01 A3042 RMK A01 T01240006  RH  045%=      5-min Rain = 0
KCA2 151646Z 25003KT 13/00 A3041 RMK A01 T01260002  RH  043%=      5-min Rain = 0
KCA2 151647Z 23003KT 13/M00 A3041 RMK A01 T01261001  RH  042%=      5-min Rain = 0
KCA2 151648Z 21003KT 12/M00 A3041 RMK A01 T01231003  RH  042%=      5-min Rain = 0
KCA2 151649Z 20003KT 12/00 A3041 RMK A01 T012300-0  RH  043%=      5-min Rain = 0
KCA2 151650Z 26005KT 13/00 A3041 RMK A01 T01250002  RH  043%=      5-min Rain = 0
KCA2 151651Z 30005KT 13/00 A3041 RMK A01 T01260003  RH  043%=      5-min Rain = 0
KCA2 151652Z 32004KT 13/00 A3041 RMK A01 T01250003  RH  043%=      5-min Rain = 0
KCA2 151653Z 30002KT 13/00 A3041 RMK A01 T01250004  RH  043%=      5-min Rain = 0
KCA2 151654Z 29003KT 13/01 A3041 RMK A01 T01270005  RH  043%=      5-min Rain = 0
KCA2 151655Z 27005KT 13/00 A3041 RMK A01 T01280003  RH  042%=      5-min Rain = 0
KCA2 151656Z 26005KT 13/00 A3041 RMK A01 T01260002  RH  042%=      5-min Rain = 0
KCA2 151657Z 26005KT 13/00 A3041 RMK A01 T01250003  RH  043%=      5-min Rain = 0
KCA2 151658Z 25005KT 13/00 A3041 RMK A01 T01250001  RH  042%=      5-min Rain = 0
KCA2 151659Z 26004KT 12/00 A3041 RMK A01 T01240000  RH  043%=      5-min Rain = 0
KCA2 151700Z 24003KT 12/00 A3041 RMK A01 T01230001  RH  043%=      5-min Rain = 0
KCA2 151701Z 23003KT 12/00 A3041 RMK A01 T01230001  RH  043%=      5-min Rain = 0
KCA2 151702Z 25004KT 12/00 A3041 RMK A01 T01240000  RH  043%=      5-min Rain = 0
KCA2 151703Z 26003KT 12/00 A3041 RMK A01 T01240002  RH  043%=      5-min Rain = 0
KCA2 151704Z 29004KT 13/00 A3041 RMK A01 T01270004  RH  043%=      5-min Rain = 0
KCA2 151705Z 28005KT 13/00 A3041 RMK A01 T01290004  RH  042%=      5-min Rain = 0
KCA2 151706Z 28004KT 13/00 A3041 RMK A01 T01290002  RH  042%=      5-min Rain = 0
KCA2 151707Z 30006KT 13/00 A3041 RMK A01 T01280003  RH  042%=      5-min Rain = 0
KCA2 151708Z 31003KT 13/00 A3041 RMK A01 T01280001  RH  042%=      5-min Rain = 0
KCA2 151709Z 31002KT 13/00 A304 RMK A01 T01270002  RH  042%=      5-min Rain = 0
KCA2 151710Z 31002KT 13/00 A304 RMK A01 T01290002  RH  042%=      5-min Rain = 0
KCA2 151711Z 26000KT 13/00 A304 RMK A01 T01290000  RH  041%=      5-min Rain = 0
KCA2 151712Z 21000KT 13/00 A304 RMK A01 T01290001  RH  042%=      5-min Rain = 0
KCA2 151713Z 34000KT 13/00 A304 RMK A01 T01300003  RH  042%=      5-min Rain = 0
KCA2 151714Z 01001KT 13/00 A304 RMK A01 T01320004  RH  041%=      5-min Rain = 0
KCA2 151715Z 05003KT 13/00 A304 RMK A01 T01330004  RH  041%=      5-min Rain = 0
KCA2 151716Z 13003KT 13/00 A304 RMK A01 T01330004  RH  041%=      5-min Rain = 0
KCA2 151717Z 20003KT 13/00 A304 RMK A01 T01340003  RH  041%=      5-min Rain = 0
KCA2 151718Z 23003KT 13/00 A304 RMK A01 T01340002  RH  040%=      5-min Rain = 0
KCA2 151719Z 29004KT 13/00 A304 RMK A01 T01340003  RH  041%=      5-min Rain = 0
KCA2 151720Z 28004KT 14/00 A304 RMK A01 T01350004  RH  041%=      5-min Rain = 0
KCA2 151721Z 28003KT 14/00 A304 RMK A01 T01360003  RH  040%=      5-min Rain = 0
KCA2 151722Z 28001KT 14/00 A304 RMK A01 T01350000  RH  040%=      5-min Rain = 0
KCA2 151723Z 05000KT 13/M00 A304 RMK A01 T01311001  RH  040%=      5-min Rain = 0
KCA2 151724Z 22001KT 13/00 A304 RMK A01 T01310001  RH  041%=      5-min Rain = 0
KCA2 151725Z 22004KT 13/00 A304 RMK A01 T01320002  RH  041%=      5-min Rain = 0
KCA2 151726Z 20002KT 13/00 A304 RMK A01 T01320001  RH  041%=      5-min Rain = 0
KCA2 151727Z 18003KT 13/00 A304 RMK A01 T01320001  RH  041%=      5-min Rain = 0
KCA2 151728Z 20003KT 13/00 A304 RMK A01 T01310001  RH  041%=      5-min Rain = 0
KCA2 151729Z 26004KT 13/00 A304 RMK A01 T01310003  RH  041%=      5-min Rain = 0
KCA2 151730Z 26003KT 13/00 A304 RMK A01 T01330002  RH  041%=      5-min Rain = 0
KCA2 151731Z 28003KT 13/00 A304 RMK A01 T01320001  RH  041%=      5-min Rain = 0
KCA2 151732Z 29003KT 13/00 A304 RMK A01 T01310000  RH  041%=      5-min Rain = 0
KCA2 151733Z 28002KT 13/00 A304 RMK A01 T013000-0  RH  041%=      5-min Rain = 0
KCA2 151734Z 27001KT 13/M00 A304 RMK A01 T01301001  RH  041%=      5-min Rain = 0
KCA2 151735Z 01001KT 13/00 A3039 RMK A01 T013000-0  RH  041%=      5-min Rain = 0
KCA2 151736Z 00001KT 13/00 A3039 RMK A01 T01310001  RH  041%=      5-min Rain = 0
KCA2 151737Z 00002KT 13/00 A3039 RMK A01 T01330002  RH  041%=      5-min Rain = 0
KCA2 151738Z 34001KT 13/00 A3039 RMK A01 T01340003  RH  040%=      5-min Rain = 0
KCA2 151739Z 29002KT 14/01 A3039 RMK A01 T01360005  RH  041%=      5-min Rain = 0
KCA2 151740Z 30000KT 14/01 A3039 RMK A01 T01390005  RH  040%=      5-min Rain = 0
KCA2 151741Z 16003KT 14/01 A3039 RMK A01 T01410006  RH  040%=      5-min Rain = 0
KCA2 151742Z 19003KT 14/01 A3039 RMK A01 T01420006  RH  039%=      5-min Rain = 0
KCA2 151743Z 19004KT 14/00 A3039 RMK A01 T01400002  RH  039%=      5-min Rain = 0
KCA2 151744Z 21004KT 14/01 A3039 RMK A01 T01390005  RH  040%=      5-min Rain = 0
KCA2 151745Z 22003KT 14/00 A3039 RMK A01 T01390002  RH  039%=      5-min Rain = 0
KCA2 151746Z 24003KT 14/00 A3039 RMK A01 T01380003  RH  040%=      5-min Rain = 0
KCA2 151747Z 23001KT 14/00 A3039 RMK A01 T01380002  RH  039%=      5-min Rain = 0
KCA2 151748Z 21003KT 14/00 A3039 RMK A01 T01380004  RH  040%=      5-min Rain = 0
KCA2 151749Z 21003KT 14/00 A3039 RMK A01 T01390003  RH  039%=      5-min Rain = 0
KCA2 151750Z 19002KT 14/00 A3039 RMK A01 T01390002  RH  039%=      5-min Rain = 0
KCA2 151751Z 19001KT 14/00 A3039 RMK A01 T01380003  RH  040%=      5-min Rain = 0
KCA2 151752Z 13002KT 14/01 A3039 RMK A01 T01390006  RH  040%=      5-min Rain = 0
KCA2 151753Z 15003KT 14/00 A3038 RMK A01 T01420004  RH  039%=      5-min Rain = 0
KCA2 151754Z 17003KT 14/01 A3038 RMK A01 T01420005  RH  039%=      5-min Rain = 0
KCA2 151755Z 16003KT 14/00 A3038 RMK A01 T01420004  RH  039%=      5-min Rain = 0
KCA2 151756Z 18001KT 14/01 A3038 RMK A01 T01430006  RH  039%=      5-min Rain = 0
KCA2 151757Z 14002KT 14/00 A3038 RMK A01 T01440004  RH  038%=      5-min Rain = 0
KCA2 151758Z 16002KT 14/00 A3038 RMK A01 T01430002  RH  038%=      5-min Rain = 0
KCA2 151759Z 20001KT 14/00 A3038 RMK A01 T01420002  RH  039%=      5-min Rain = 0
KCA2 151800Z 26000KT 14/00 A3038 RMK A01 T01410004  RH  039%=      5-min Rain = 0
KCA2 151801Z 00000KT 14/00 A3038 RMK A01 T01420003  RH  038%=      5-min Rain = 0
KCA2 151802Z 00000KT 14/00 A3038 RMK A01 T01440003  RH  038%=      5-min Rain = 0
KCA2 151803Z 01000KT 14/00 A3038 RMK A01 T01440003  RH  038%=      5-min Rain = 0
KCA2 151804Z 02000KT 14/00 A3038 RMK A01 T01440002  RH  038%=      5-min Rain = 0
KCA2 151805Z 06000KT 14/00 A3038 RMK A01 T01440002  RH  038%=      5-min Rain = 0
KCA2 151806Z 07001KT 14/00 A3038 RMK A01 T01430002  RH  038%=      5-min Rain = 0
KCA2 151807Z 05001KT 14/00 A3038 RMK A01 T01420001  RH  038%=      5-min Rain = 0
KCA2 151808Z 18001KT 14/01 A3038 RMK A01 T01430007  RH  039%=      5-min Rain = 0
KCA2 151809Z 19003KT 15/01 A3038 RMK A01 T01460007  RH  039%=      5-min Rain = 0
KCA2 151810Z 19003KT 15/01 A3038 RMK A01 T01480005  RH  038%=      5-min Rain = 0
KCA2 151811Z 21003KT 15/00 A3037 RMK A01 T01460004  RH  038%=      5-min Rain = 0
KCA2 151812Z 22002KT 15/01 A3037 RMK A01 T01450005  RH  038%=      5-min Rain = 0
KCA2 151813Z 23002KT 15/01 A3037 RMK A01 T01450005  RH  038%=      5-min Rain = 0
KCA2 151814Z 26000KT 15/00 A3037 RMK A01 T01450004  RH  038%=      5-min Rain = 0
KCA2 151815Z 16000KT 15/01 A3037 RMK A01 T01460006  RH  039%=      5-min Rain = 0
KCA2 151816Z 16002KT 15/01 A3037 RMK A01 T01480006  RH  038%=      5-min Rain = 0
KCA2 151817Z 18002KT 15/01 A3037 RMK A01 T01490007  RH  038%=      5-min Rain = 0
KCA2 151818Z 05001KT 15/01 A3037 RMK A01 T01500008  RH  038%=      5-min Rain = 0
KCA2 151819Z 11003KT 15/01 A3037 RMK A01 T01510010  RH  038%=      5-min Rain = 0
KCA2 151820Z 13004KT 15/01 A3037 RMK A01 T01510010  RH  038%=      5-min Rain = 0
KCA2 151821Z 10003KT 15/01 A3037 RMK A01 T01500010  RH  038%=      5-min Rain = 0
KCA2 151822Z 09003KT 15/01 A3037 RMK A01 T01490008  RH  038%=      5-min Rain = 0
KCA2 151823Z 11002KT 15/01 A3037 RMK A01 T01470010  RH  039%=      5-min Rain = 0
KCA2 151824Z 12004KT 15/01 A3036 RMK A01 T01470008  RH  039%=      5-min Rain = 0
KCA2 151825Z 10002KT 15/01 A3036 RMK A01 T01470007  RH  039%=      5-min Rain = 0
KCA2 151826Z 11001KT 15/01 A3036 RMK A01 T01480008  RH  039%=      5-min Rain = 0
KCA2 151827Z 10002KT 15/01 A3036 RMK A01 T01480007  RH  038%=      5-min Rain = 0
KCA2 151828Z 13001KT 15/01 A3036 RMK A01 T01480007  RH  038%=      5-min Rain = 0
KCA2 151829Z 12003KT 15/01 A3036 RMK A01 T01490008  RH  038%=      5-min Rain = 0
KCA2 151830Z 12005KT 15/01 A3036 RMK A01 T01500012  RH  039%=      5-min Rain = 0
KCA2 151831Z 11004KT 15/01 A3036 RMK A01 T01510011  RH  039%=      5-min Rain = 0
KCA2 151832Z 13003KT 15/01 A3036 RMK A01 T01500011  RH  039%=      5-min Rain = 0
KCA2 151833Z 15002KT 15/01 A3036 RMK A01 T01480010  RH  039%=      5-min Rain = 0
KCA2 151834Z 16005KT 15/01 A3036 RMK A01 T01490014  RH  040%=      5-min Rain = 0
KCA2 151835Z 14004KT 15/01 A3036 RMK A01 T01520011  RH  039%=      5-min Rain = 0
KCA2 151836Z 14003KT 15/01 A3035 RMK A01 T01520014  RH  039%=      5-min Rain = 0
KCA2 151837Z 13001KT 15/01 A3035 RMK A01 T01530011  RH  038%=      5-min Rain = 0
KCA2 151838Z 10003KT 15/01 A3035 RMK A01 T01520011  RH  038%=      5-min Rain = 0
KCA2 151839Z 07003KT 15/01 A3035 RMK A01 T01500011  RH  039%=      5-min Rain = 0
KCA2 151840Z 06002KT 15/01 A3035 RMK A01 T01480011  RH  039%=      5-min Rain = 0
KCA2 151841Z 04001KT 15/01 A3035 RMK A01 T01480012  RH  040%=      5-min Rain = 0
KCA2 151842Z 04001KT 15/01 A3035 RMK A01 T01490011  RH  039%=      5-min Rain = 0
KCA2 151843Z 13000KT 15/01 A3035 RMK A01 T01490010  RH  039%=      5-min Rain = 0
KCA2 151844Z 17001KT 15/01 A3035 RMK A01 T01490011  RH  039%=      5-min Rain = 0
KCA2 151845Z 13003KT 15/02 A3035 RMK A01 T01530019  RH  040%=      5-min Rain = 0
KCA2 151846Z 13004KT 16/02 A3034 RMK A01 T01570017  RH  039%=      5-min Rain = 0
KCA2 151847Z 13004KT 16/02 A3034 RMK A01 T01580017  RH  039%=      5-min Rain = 0
KCA2 151848Z 12002KT 16/02 A3034 RMK A01 T01580015  RH  038%=      5-min Rain = 0
KCA2 151849Z 17002KT 16/01 A3034 RMK A01 T01550013  RH  038%=      5-min Rain = 0
KCA2 151850Z 16004KT 15/02 A3034 RMK A01 T01530016  RH  039%=      5-min Rain = 0
KCA2 151851Z 15004KT 16/02 A3034 RMK A01 T01550015  RH  039%=      5-min Rain = 0
KCA2 151852Z 15002KT 16/02 A3034 RMK A01 T01550015  RH  039%=      5-min Rain = 0
KCA2 151853Z 19001KT 16/02 A3034 RMK A01 T01560019  RH  040%=      5-min Rain = 0
KCA2 151854Z 18003KT 16/02 A3034 RMK A01 T01590018  RH  038%=      5-min Rain = 0
KCA2 151855Z 17004KT 16/02 A3034 RMK A01 T01610017  RH  038%=      5-min Rain = 0
KCA2 151856Z 21004KT 16/02 A3034 RMK A01 T01610018  RH  038%=      5-min Rain = 0
KCA2 151857Z 21004KT 16/02 A3034 RMK A01 T01610015  RH  037%=      5-min Rain = 0
KCA2 151858Z 21003KT 16/01 A3034 RMK A01 T01570014  RH  038%=      5-min Rain = 0
KCA2 151859Z 21003KT 16/02 A3033 RMK A01 T01560017  RH  039%=      5-min Rain = 0
KCA2 151900Z 15005KT 16/02 A3033 RMK A01 T01580019  RH  039%=      5-min Rain = 0
KCA2 151901Z 15005KT 16/02 A3033 RMK A01 T01600019  RH  038%=      5-min Rain = 0
KCA2 151902Z 16004KT 16/02 A3033 RMK A01 T01610018  RH  038%=      5-min Rain = 0
KCA2 151903Z 15004KT 16/02 A3033 RMK A01 T01600017  RH  038%=      5-min Rain = 0
KCA2 151904Z 15002KT 16/02 A3033 RMK A01 T01580016  RH  038%=      5-min Rain = 0
KCA2 151905Z 17002KT 16/02 A3033 RMK A01 T01580018  RH  039%=      5-min Rain = 0
KCA2 151906Z 15002KT 16/02 A3033 RMK A01 T01600019  RH  039%=      5-min Rain = 0
KCA2 151907Z 07002KT 16/02 A3033 RMK A01 T01600017  RH  038%=      5-min Rain = 0
KCA2 151908Z 08002KT 16/02 A3033 RMK A01 T01600020  RH  039%=      5-min Rain = 0
KCA2 151909Z 10004KT 16/02 A3032 RMK A01 T01630022  RH  039%=      5-min Rain = 0
KCA2 151910Z 11006KT 16/02 A3032 RMK A01 T01640020  RH  038%=      5-min Rain = 0
KCA2 151911Z 09005KT 16/02 A3032 RMK A01 T01630018  RH  037%=      5-min Rain = 0
KCA2 151912Z 08005KT 16/02 A3032 RMK A01 T01610018  RH  038%=      5-min Rain = 0
KCA2 151913Z 06004KT 16/02 A3032 RMK A01 T01590016  RH  038%=      5-min Rain = 0
KCA2 151914Z 05003KT 16/02 A3032 RMK A01 T01580016  RH  038%=      5-min Rain = 0
KCA2 151915Z 06002KT 16/02 A3032 RMK A01 T01560017  RH  039%=      5-min Rain = 0
KCA2 151916Z 09002KT 16/02 A3032 RMK A01 T01570018  RH  039%=      5-min Rain = 0
KCA2 151917Z 12002KT 16/02 A3032 RMK A01 T01580017  RH  038%=      5-min Rain = 0
KCA2 151918Z 16003KT 16/02 A3032 RMK A01 T01600019  RH  039%=      5-min Rain = 0
KCA2 151919Z 18004KT 16/02 A3031 RMK A01 T01630020  RH  038%=      5-min Rain = 0
KCA2 151920Z 17005KT 17/02 A3031 RMK A01 T01660020  RH  037%=      5-min Rain = 0
KCA2 151921Z 19004KT 17/02 A3031 RMK A01 T01670018  RH  037%=      5-min Rain = 0
KCA2 151922Z 19005KT 17/02 A3031 RMK A01 T01660019  RH  037%=      5-min Rain = 0
KCA2 151923Z 18005KT 17/02 A3031 RMK A01 T01650018  RH  037%=      5-min Rain = 0
KCA2 151924Z 20005KT 17/02 A3031 RMK A01 T01650020  RH  038%=      5-min Rain = 0
KCA2 151925Z 21004KT 17/02 A3031 RMK A01 T01650018  RH  037%=      5-min Rain = 0
KCA2 151926Z 18003KT 16/02 A3031 RMK A01 T01630016  RH  037%=      5-min Rain = 0
KCA2 151927Z 13004KT 16/02 A3031 RMK A01 T01610018  RH  038%=      5-min Rain = 0
KCA2 151928Z 15004KT 16/02 A3031 RMK A01 T01630021  RH  038%=      5-min Rain = 0
KCA2 151929Z 11003KT 17/02 A3031 RMK A01 T01650021  RH  038%=      5-min Rain = 0
KCA2 151930Z 08002KT 17/02 A3031 RMK A01 T01650019  RH  037%=      5-min Rain = 0
KCA2 151931Z 08000KT 16/02 A3031 RMK A01 T01630018  RH  038%=      5-min Rain = 0
KCA2 151932Z 11003KT 16/02 A303 RMK A01 T01630020  RH  038%=      5-min Rain = 0
KCA2 151933Z 13007KT 16/02 A303 RMK A01 T01630021  RH  038%=      5-min Rain = 0
KCA2 151934Z 12006KT 16/02 A303 RMK A01 T01630022  RH  039%=      5-min Rain = 0
KCA2 151935Z 10005KT 16/02 A303 RMK A01 T01640022  RH  038%=      5-min Rain = 0
KCA2 151936Z 12004KT 16/02 A303 RMK A01 T01630021  RH  038%=      5-min Rain = 0
KCA2 151937Z 15004KT 16/02 A303 RMK A01 T01630023  RH  039%=      5-min Rain = 0
KCA2 151938Z 13004KT 17/02 A303 RMK A01 T01660024  RH  038%=      5-min Rain = 0
KCA2 151939Z 14005KT 17/03 A303 RMK A01 T01680025  RH  038%=      5-min Rain = 0
KCA2 151940Z 13004KT 17/03 A303 RMK A01 T01710025  RH  038%=      5-min Rain = 0
KCA2 151941Z 12004KT 17/02 A303 RMK A01 T01710023  RH  037%=      5-min Rain = 0
KCA2 151942Z 11002KT 17/02 A3029 RMK A01 T01690022  RH  037%=      5-min Rain = 0
KCA2 151943Z 17004KT 17/02 A3029 RMK A01 T01680024  RH  038%=      5-min Rain = 0
KCA2 151944Z 17002KT 17/02 A3029 RMK A01 T01680024  RH  038%=      5-min Rain = 0
KCA2 151945Z 15000KT 17/02 A3029 RMK A01 T01680024  RH  038%=      5-min Rain = 0
KCA2 151946Z 00000KT 17/02 A3029 RMK A01 T01690023  RH  038%=      5-min Rain = 0
KCA2 151947Z 22001KT 17/02 A3029 RMK A01 T01700024  RH  037%=      5-min Rain = 0
KCA2 151948Z 19003KT 17/03 A3029 RMK A01 T01710025  RH  037%=      5-min Rain = 0
KCA2 151949Z 16003KT 17/03 A3029 RMK A01 T01720025  RH  037%=      5-min Rain = 0
KCA2 151950Z 17004KT 17/03 A3029 RMK A01 T01730026  RH  037%=      5-min Rain = 0
KCA2 151951Z 15006KT 17/03 A3029 RMK A01 T01740028  RH  038%=      5-min Rain = 0
KCA2 151952Z 15004KT 17/03 A3029 RMK A01 T01730026  RH  037%=      5-min Rain = 0
KCA2 151953Z 13006KT 17/03 A3028 RMK A01 T01720025  RH  037%=      5-min Rain = 0
KCA2 151954Z 14004KT 17/03 A3028 RMK A01 T01700026  RH  038%=      5-min Rain = 0
KCA2 151955Z 14004KT 17/03 A3028 RMK A01 T01690027  RH  038%=      5-min Rain = 0
KCA2 151956Z 15005KT 17/03 A3028 RMK A01 T01710029  RH  039%=      5-min Rain = 0
KCA2 151957Z 17005KT 17/03 A3028 RMK A01 T01720028  RH  038%=      5-min Rain = 0
KCA2 151958Z 18003KT 17/03 A3028 RMK A01 T01720027  RH  038%=      5-min Rain = 0
KCA2 151959Z 18002KT 17/03 A3028 RMK A01 T01720028  RH  038%=      5-min Rain = 0
KCA2 152000Z 18001KT 17/03 A3028 RMK A01 T01710027  RH  038%=      5-min Rain = 0
KCA2 152001Z 16003KT 17/03 A3028 RMK A01 T01710027  RH  038%=      5-min Rain = 0
KCA2 152002Z 16004KT 17/03 A3028 RMK A01 T01720031  RH  039%=      5-min Rain = 0
KCA2 152003Z 20004KT 17/03 A3028 RMK A01 T01730031  RH  039%=      5-min Rain = 0
KCA2 152004Z 20003KT 17/03 A3027 RMK A01 T01720032  RH  039%=      5-min Rain = 0
KCA2 152005Z 16004KT 17/03 A3027 RMK A01 T01700032  RH  040%=      5-min Rain = 0
KCA2 152006Z 16005KT 17/03 A3027 RMK A01 T01700032  RH  040%=      5-min Rain = 0
KCA2 152007Z 13007KT 17/03 A3027 RMK A01 T01730034  RH  040%=      5-min Rain = 0
KCA2 152008Z 12008KT 17/03 A3027 RMK A01 T01740031  RH  038%=      5-min Rain = 0
KCA2 152009Z 13006KT 17/03 A3027 RMK A01 T01720031  RH  039%=      5-min Rain = 0
KCA2 152010Z 15004KT 17/03 A3027 RMK A01 T01710030  RH  039%=      5-min Rain = 0
KCA2 152011Z 13004KT 17/03 A3027 RMK A01 T01710029  RH  039%=      5-min Rain = 0
KCA2 152012Z 15007KT 17/03 A3027 RMK A01 T01710029  RH  039%=      5-min Rain = 0
KCA2 152013Z 17007KT 17/03 A3027 RMK A01 T01710028  RH  038%=      5-min Rain = 0
KCA2 152014Z 15008KT 17/03 A3027 RMK A01 T01710028  RH  038%=      5-min Rain = 0
KCA2 152015Z 13006KT 17/03 A3027 RMK A01 T01710028  RH  038%=      5-min Rain = 0
KCA2 152016Z 11005KT 17/03 A3027 RMK A01 T01700027  RH  038%=      5-min Rain = 0
KCA2 152017Z 10003KT 17/03 A3027 RMK A01 T01690027  RH  039%=      5-min Rain = 0
KCA2 152018Z 14005KT 17/03 A3027 RMK A01 T01680028  RH  039%=      5-min Rain = 0
KCA2 152019Z 15004KT 17/03 A3027 RMK A01 T01690027  RH  039%=      5-min Rain = 0
KCA2 152020Z 18001KT 17/03 A3026 RMK A01 T01680025  RH  038%=      5-min Rain = 0
KCA2 152021Z 32000KT 17/03 A3026 RMK A01 T01680026  RH  039%=      5-min Rain = 0
KCA2 152022Z 15003KT 17/03 A3026 RMK A01 T01680028  RH  039%=      5-min Rain = 0
KCA2 152023Z 15004KT 17/03 A3026 RMK A01 T01700030  RH  039%=      5-min Rain = 0
KCA2 152024Z 16005KT 17/03 A3026 RMK A01 T01730029  RH  038%=      5-min Rain = 0
KCA2 152025Z 16004KT 17/03 A3026 RMK A01 T01730030  RH  038%=      5-min Rain = 0
KCA2 152026Z 14006KT 18/03 A3026 RMK A01 T01750031  RH  038%=      5-min Rain = 0
KCA2 152027Z 13006KT 18/03 A3026 RMK A01 T01760030  RH  038%=      5-min Rain = 0
KCA2 152028Z 11006KT 18/03 A3026 RMK A01 T01750031  RH  038%=      5-min Rain = 0
KCA2 152029Z 11006KT 17/03 A3026 RMK A01 T01740031  RH  039%=      5-min Rain = 0
KCA2 152030Z 08005KT 17/03 A3026 RMK A01 T01730032  RH  039%=      5-min Rain = 0
KCA2 152031Z 08004KT 17/03 A3026 RMK A01 T01730032  RH  039%=      5-min Rain = 0
KCA2 152032Z 08003KT 17/03 A3026 RMK A01 T01730030  RH  038%=      5-min Rain = 0
KCA2 152033Z 12002KT 17/03 A3026 RMK A01 T01730034  RH  039%=      5-min Rain = 0
KCA2 152034Z 16003KT 18/04 A3026 RMK A01 T01760035  RH  039%=      5-min Rain = 0
KCA2 152035Z 13003KT 18/03 A3026 RMK A01 T01790033  RH  038%=      5-min Rain = 0
KCA2 152036Z 13005KT 18/03 A3026 RMK A01 T01800032  RH  037%=      5-min Rain = 0
KCA2 152037Z 14006KT 18/03 A3026 RMK A01 T01770030  RH  037%=      5-min Rain = 0
KCA2 152038Z 14006KT 18/03 A3026 RMK A01 T01760029  RH  037%=      5-min Rain = 0
KCA2 152039Z 11005KT 18/03 A3026 RMK A01 T01760030  RH  038%=      5-min Rain = 0
KCA2 152040Z 14004KT 17/03 A3026 RMK A01 T01740031  RH  038%=      5-min Rain = 0
KCA2 152041Z 16006KT 18/03 A3025 RMK A01 T01770033  RH  038%=      5-min Rain = 0
KCA2 152042Z 17004KT 18/03 A3025 RMK A01 T01790029  RH  037%=      5-min Rain = 0
KCA2 152043Z 18002KT 18/03 A3025 RMK A01 T01780029  RH  037%=      5-min Rain = 0
KCA2 152044Z 15001KT 18/03 A3025 RMK A01 T01760030  RH  038%=      5-min Rain = 0
KCA2 152045Z 15002KT 18/03 A3025 RMK A01 T01760030  RH  038%=      5-min Rain = 0
KCA2 152046Z 14004KT 18/03 A3025 RMK A01 T01780033  RH  038%=      5-min Rain = 0
KCA2 152047Z 16005KT 18/03 A3025 RMK A01 T01800034  RH  038%=      5-min Rain = 0
KCA2 152048Z 12005KT 18/03 A3025 RMK A01 T01820034  RH  037%=      5-min Rain = 0
KCA2 152049Z 12005KT 18/03 A3025 RMK A01 T01830031  RH  036%=      5-min Rain = 0
KCA2 152050Z 14003KT 18/03 A3025 RMK A01 T01800031  RH  037%=      5-min Rain = 0
KCA2 152051Z 14006KT 18/03 A3025 RMK A01 T01800032  RH  037%=      5-min Rain = 0
KCA2 152052Z 13006KT 18/03 A3025 RMK A01 T01800029  RH  037%=      5-min Rain = 0
KCA2 152053Z 12005KT 18/03 A3025 RMK A01 T01790030  RH  037%=      5-min Rain = 0
KCA2 152054Z 13005KT 18/03 A3025 RMK A01 T01780030  RH  037%=      5-min Rain = 0
KCA2 152055Z 16006KT 18/03 A3025 RMK A01 T01770030  RH  037%=      5-min Rain = 0
KCA2 152056Z 19007KT 18/03 A3025 RMK A01 T01780030  RH  037%=      5-min Rain = 0
KCA2 152057Z 19006KT 18/03 A3025 RMK A01 T01770028  RH  037%=      5-min Rain = 0
KCA2 152058Z 19006KT 18/03 A3025 RMK A01 T01760031  RH  038%=      5-min Rain = 0
KCA2 152059Z 17006KT 18/03 A3025 RMK A01 T01780030  RH  037%=      5-min Rain = 0
KCA2 152100Z 18005KT 18/03 A3025 RMK A01 T01790030  RH  037%=      5-min Rain = 0
KCA2 152101Z 15007KT 18/03 A3025 RMK A01 T01790031  RH  037%=      5-min Rain = 0
KCA2 152102Z 14003KT 18/03 A3024 RMK A01 T01810032  RH  037%=      5-min Rain = 0
KCA2 152103Z 12006KT 18/03 A3024 RMK A01 T01810031  RH  037%=      5-min Rain = 0
KCA2 152104Z 14006KT 18/03 A3024 RMK A01 T01810032  RH  037%=      5-min Rain = 0
KCA2 152105Z 14005KT 18/03 A3024 RMK A01 T01810032  RH  037%=      5-min Rain = 0
KCA2 152106Z 12007KT 18/03 A3024 RMK A01 T01820032  RH  037%=      5-min Rain = 0
KCA2 152107Z 12005KT 18/03 A3024 RMK A01 T01820030  RH  036%=      5-min Rain = 0
KCA2 152108Z 15005KT 18/03 A3024 RMK A01 T01810030  RH  037%=      5-min Rain = 0
KCA2 152109Z 15005KT 18/03 A3024 RMK A01 T01800029  RH  037%=      5-min Rain = 0
KCA2 152110Z 14005KT 18/03 A3024 RMK A01 T01810030  RH  037%=      5-min Rain = 0
KCA2 152111Z 16006KT 18/03 A3024 RMK A01 T01810030  RH  037%=      5-min Rain = 0
KCA2 152112Z 15007KT 18/03 A3024 RMK A01 T01800028  RH  036%=      5-min Rain = 0
KCA2 152113Z 16009KT 18/03 A3024 RMK A01 T01790031  RH  037%=      5-min Rain = 0
KCA2 152114Z 16008KT 18/03 A3024 RMK A01 T01810030  RH  036%=      5-min Rain = 0
KCA2 152115Z 15006KT 18/03 A3024 RMK A01 T01810030  RH  037%=      5-min Rain = 0
KCA2 152116Z 11006KT 18/03 A3024 RMK A01 T01820031  RH  037%=      5-min Rain = 0
KCA2 152117Z 14004KT 18/03 A3024 RMK A01 T01830030  RH  036%=      5-min Rain = 0
KCA2 152118Z 16005KT 18/03 A3024 RMK A01 T01820030  RH  036%=      5-min Rain = 0
KCA2 152119Z 17004KT 18/03 A3024 RMK A01 T01820029  RH  036%=      5-min Rain = 0
KCA2 152120Z 16005KT 18/03 A3024 RMK A01 T01820030  RH  036%=      5-min Rain = 0
KCA2 152121Z 14006KT 18/03 A3024 RMK A01 T01840032  RH  036%=      5-min Rain = 0
KCA2 152122Z 13006KT 18/03 A3024 RMK A01 T01840030  RH  036%=      5-min Rain = 0
KCA2 152123Z 14004KT 18/03 A3024 RMK A01 T01820029  RH  036%=      5-min Rain = 0
KCA2 152124Z 13004KT 18/03 A3024 RMK A01 T01810032  RH  037%=      5-min Rain = 0
KCA2 152125Z 16006KT 18/03 A3024 RMK A01 T01830032  RH  037%=      5-min Rain = 0
KCA2 152126Z 15006KT 18/03 A3024 RMK A01 T01840031  RH  036%=      5-min Rain = 0
KCA2 152127Z 16006KT 18/03 A3024 RMK A01 T01840030  RH  036%=      5-min Rain = 0
KCA2 152128Z 16003KT 18/03 A3024 RMK A01 T01830029  RH  036%=      5-min Rain = 0
KCA2 152129Z 14005KT 18/03 A3024 RMK A01 T01820030  RH  036%=      5-min Rain = 0
KCA2 152130Z 13008KT 18/03 A3024 RMK A01 T01830030  RH  036%=      5-min Rain = 0
KCA2 152131Z 12007KT 18/03 A3024 RMK A01 T01810028  RH  036%=      5-min Rain = 0
KCA2 152132Z 12005KT 18/03 A3024 RMK A01 T01800029  RH  036%=      5-min Rain = 0
KCA2 152133Z 13006KT 18/03 A3024 RMK A01 T01790029  RH  037%=      5-min Rain = 0
KCA2 152134Z 13004KT 18/03 A3023 RMK A01 T01790031  RH  037%=      5-min Rain = 0
KCA2 152135Z 13005KT 18/03 A3023 RMK A01 T01810030  RH  036%=      5-min Rain = 0
KCA2 152136Z 13006KT 18/03 A3023 RMK A01 T01820030  RH  036%=      5-min Rain = 0
KCA2 152137Z 14009KT 18/03 A3023 RMK A01 T01830032  RH  036%=      5-min Rain = 0
KCA2 152138Z 14007KT 18/03 A3023 RMK A01 T01830030  RH  036%=      5-min Rain = 0
KCA2 152139Z 15005KT 18/03 A3023 RMK A01 T01820030  RH  036%=      5-min Rain = 0
KCA2 152140Z 17005KT 18/03 A3023 RMK A01 T01820032  RH  037%=      5-min Rain = 0
KCA2 152141Z 17005KT 18/03 A3023 RMK A01 T01840031  RH  036%=      5-min Rain = 0
KCA2 152142Z 18006KT 18/03 A3023 RMK A01 T01840030  RH  036%=      5-min Rain = 0
KCA2 152143Z 15007KT 18/03 A3023 RMK A01 T01830031  RH  036%=      5-min Rain = 0
KCA2 152144Z 14007KT 18/03 A3023 RMK A01 T01830031  RH  036%=      5-min Rain = 0
KCA2 152145Z 14005KT 18/03 A3023 RMK A01 T01820030  RH  036%=      5-min Rain = 0
KCA2 152146Z 13006KT 18/03 A3023 RMK A01 T01820032  RH  037%=      5-min Rain = 0
KCA2 152147Z 12006KT 18/03 A3023 RMK A01 T01820030  RH  036%=      5-min Rain = 0
KCA2 152148Z 11005KT 18/03 A3023 RMK A01 T01820031  RH  037%=      5-min Rain = 0
KCA2 152149Z 15005KT 18/03 A3023 RMK A01 T01820032  RH  037%=      5-min Rain = 0
KCA2 152150Z 17006KT 18/03 A3023 RMK A01 T01820031  RH  037%=      5-min Rain = 0
KCA2 152151Z 17006KT 18/03 A3023 RMK A01 T01840032  RH  036%=      5-min Rain = 0
KCA2 152152Z 15007KT 19/03 A3023 RMK A01 T01860033  RH  036%=      5-min Rain = 0
KCA2 152153Z 15007KT 19/03 A3023 RMK A01 T01870033  RH  036%=      5-min Rain = 0
KCA2 152154Z 16007KT 19/03 A3023 RMK A01 T01860032  RH  036%=      5-min Rain = 0
KCA2 152155Z 16007KT 19/03 A3023 RMK A01 T01850030  RH  036%=      5-min Rain = 0
KCA2 152156Z 14004KT 18/03 A3023 RMK A01 T01840031  RH  036%=      5-min Rain = 0
KCA2 152157Z 16005KT 18/03 A3023 RMK A01 T01840031  RH  036%=      5-min Rain = 0
KCA2 152158Z 15006KT 18/03 A3023 RMK A01 T01840031  RH  036%=      5-min Rain = 0
KCA2 152159Z 16006KT 18/03 A3023 RMK A01 T01840031  RH  036%=      5-min Rain = 0
KCA2 152200Z 15005KT 18/03 A3023 RMK A01 T01840030  RH  036%=      5-min Rain = 0
KCA2 152201Z 16007KT 18/03 A3023 RMK A01 T01840032  RH  036%=      5-min Rain = 0
KCA2 152202Z 15007KT 18/03 A3022 RMK A01 T01840033  RH  036%=      5-min Rain = 0
KCA2 152203Z 14007KT 19/03 A3022 RMK A01 T01850032  RH  036%=      5-min Rain = 0
KCA2 152204Z 13006KT 19/03 A3022 RMK A01 T01850031  RH  036%=      5-min Rain = 0
KCA2 152205Z 13005KT 18/03 A3022 RMK A01 T01840033  RH  037%=      5-min Rain = 0
KCA2 152206Z 14006KT 18/03 A3022 RMK A01 T01840031  RH  036%=      5-min Rain = 0
KCA2 152207Z 13006KT 18/03 A3022 RMK A01 T01840030  RH  036%=      5-min Rain = 0
KCA2 152208Z 15003KT 18/03 A3022 RMK A01 T01820030  RH  036%=      5-min Rain = 0
KCA2 152209Z 15005KT 18/03 A3022 RMK A01 T01820031  RH  037%=      5-min Rain = 0
KCA2 152210Z 16005KT 18/03 A3022 RMK A01 T01830031  RH  036%=      5-min Rain = 0
KCA2 152211Z 15005KT 18/03 A3022 RMK A01 T01840031  RH  036%=      5-min Rain = 0
KCA2 152212Z 14007KT 19/03 A3022 RMK A01 T01850032  RH  036%=      5-min Rain = 0
KCA2 152213Z 13006KT 19/03 A3022 RMK A01 T01860031  RH  036%=      5-min Rain = 0
KCA2 152214Z 14005KT 18/03 A3022 RMK A01 T01840031  RH  036%=      5-min Rain = 0
KCA2 152215Z 14005KT 18/03 A3022 RMK A01 T01840030  RH  036%=      5-min Rain = 0
KCA2 152216Z 11006KT 18/03 A3022 RMK A01 T01840032  RH  036%=      5-min Rain = 0
KCA2 152217Z 11005KT 18/03 A3022 RMK A01 T01840032  RH  036%=      5-min Rain = 0
KCA2 152218Z 14006KT 18/03 A3022 RMK A01 T01840033  RH  037%=      5-min Rain = 0
KCA2 152219Z 12006KT 18/03 A3022 RMK A01 T01840030  RH  036%=      5-min Rain = 0
KCA2 152220Z 15005KT 18/03 A3022 RMK A01 T01830031  RH  037%=      5-min Rain = 0
KCA2 152221Z 16006KT 18/03 A3022 RMK A01 T01830032  RH  037%=      5-min Rain = 0
KCA2 152222Z 16006KT 18/03 A3022 RMK A01 T01840031  RH  036%=      5-min Rain = 0
KCA2 152223Z 16005KT 18/03 A3022 RMK A01 T01840032  RH  036%=      5-min Rain = 0
KCA2 152224Z 17006KT 18/03 A3022 RMK A01 T01840032  RH  036%=      5-min Rain = 0
KCA2 152225Z 17007KT 19/03 A3022 RMK A01 T01850032  RH  036%=      5-min Rain = 0
KCA2 152226Z 16007KT 19/03 A3022 RMK A01 T01850032  RH  036%=      5-min Rain = 0
KCA2 152227Z 16005KT 19/03 A3022 RMK A01 T01850032  RH  036%=      5-min Rain = 0
KCA2 152228Z 15005KT 19/03 A3022 RMK A01 T01850033  RH  036%=      5-min Rain = 0
KCA2 152229Z 17006KT 19/04 A3022 RMK A01 T01850035  RH  037%=      5-min Rain = 0
KCA2 152230Z 17006KT 19/03 A3022 RMK A01 T01870034  RH  036%=      5-min Rain = 0
KCA2 152231Z 15006KT 19/04 A3022 RMK A01 T01870035  RH  036%=      5-min Rain = 0
KCA2 152232Z 15006KT 19/04 A3022 RMK A01 T01880035  RH  036%=      5-min Rain = 0
KCA2 152233Z 16006KT 19/03 A3022 RMK A01 T01880032  RH  035%=      5-min Rain = 0
KCA2 152234Z 17005KT 19/03 A3022 RMK A01 T01860032  RH  036%=      5-min Rain = 0
KCA2 152235Z 16005KT 19/03 A3022 RMK A01 T01850032  RH  036%=      5-min Rain = 0
KCA2 152236Z 16005KT 19/03 A3022 RMK A01 T01850032  RH  036%=      5-min Rain = 0
KCA2 152237Z 16006KT 19/03 A3022 RMK A01 T01850032  RH  036%=      5-min Rain = 0
KCA2 152238Z 15005KT 19/03 A3022 RMK A01 T01850033  RH  036%=      5-min Rain = 0
KCA2 152239Z 15007KT 19/03 A3022 RMK A01 T01860032  RH  036%=      5-min Rain = 0
KCA2 152240Z 15006KT 19/03 A3022 RMK A01 T01860030  RH  035%=      5-min Rain = 0
KCA2 152241Z 15005KT 19/03 A3022 RMK A01 T01860031  RH  036%=      5-min Rain = 0
KCA2 152242Z 16005KT 19/03 A3022 RMK A01 T01850031  RH  036%=      5-min Rain = 0
KCA2 152243Z 16005KT 19/03 A3022 RMK A01 T01850032  RH  036%=      5-min Rain = 0
KCA2 152244Z 16005KT 19/03 A3022 RMK A01 T01860032  RH  036%=      5-min Rain = 0
KCA2 152245Z 15005KT 19/03 A3022 RMK A01 T01870031  RH  036%=      5-min Rain = 0
KCA2 152246Z 15005KT 19/03 A3022 RMK A01 T01870030  RH  035%=      5-min Rain = 0
KCA2 152247Z 14005KT 19/03 A3022 RMK A01 T01860030  RH  035%=      5-min Rain = 0
KCA2 152248Z 14004KT 19/03 A3022 RMK A01 T01860031  RH  036%=      5-min Rain = 0
KCA2 152249Z 13004KT 19/03 A3022 RMK A01 T01860030  RH  036%=      5-min Rain = 0
KCA2 152250Z 13005KT 19/03 A3022 RMK A01 T01860031  RH  036%=      5-min Rain = 0
KCA2 152251Z 13005KT 19/03 A3022 RMK A01 T01860031  RH  036%=      5-min Rain = 0
KCA2 152252Z 14004KT 19/03 A3022 RMK A01 T01870032  RH  036%=      5-min Rain = 0
KCA2 152253Z 16004KT 19/03 A3022 RMK A01 T01870032  RH  036%=      5-min Rain = 0
KCA2 152254Z 17004KT 19/03 A3022 RMK A01 T01870029  RH  035%=      5-min Rain = 0
KCA2 152255Z 17005KT 19/03 A3022 RMK A01 T01870030  RH  035%=      5-min Rain = 0
KCA2 152256Z 16005KT 19/03 A3022 RMK A01 T01860029  RH  035%=      5-min Rain = 0
KCA2 152257Z 17004KT 19/03 A3022 RMK A01 T01850029  RH  035%=      5-min Rain = 0
KCA2 152258Z 17004KT 19/03 A3022 RMK A01 T01850031  RH  036%=      5-min Rain = 0
KCA2 152259Z 18004KT 19/03 A3022 RMK A01 T01860028  RH  035%=      5-min Rain = 0
KCA2 152300Z 17004KT 19/03 A3022 RMK A01 T01860031  RH  036%=      5-min Rain = 0
KCA2 152301Z 15004KT 19/03 A3022 RMK A01 T01860030  RH  035%=      5-min Rain = 0
KCA2 152302Z 14004KT 19/03 A3022 RMK A01 T01860029  RH  035%=      5-min Rain = 0
KCA2 152303Z 15003KT 19/03 A3022 RMK A01 T01860030  RH  035%=      5-min Rain = 0
KCA2 152304Z 18004KT 19/03 A3022 RMK A01 T01860032  RH  036%=      5-min Rain = 0
KCA2 152305Z 18004KT 19/03 A3022 RMK A01 T01860030  RH  036%=      5-min Rain = 0
KCA2 152306Z 16004KT 19/03 A3022 RMK A01 T01850031  RH  036%=      5-min Rain = 0
KCA2 152307Z 16004KT 18/03 A3022 RMK A01 T01840032  RH  036%=      5-min Rain = 0
KCA2 152308Z 17004KT 19/03 A3022 RMK A01 T01850032  RH  036%=      5-min Rain = 0
KCA2 152309Z 18004KT 19/03 A3022 RMK A01 T01860032  RH  036%=      5-min Rain = 0
KCA2 152310Z 18004KT 19/03 A3022 RMK A01 T01850031  RH  036%=      5-min Rain = 0
KCA2 152311Z 18003KT 19/03 A3022 RMK A01 T01850034  RH  037%=      5-min Rain = 0
KCA2 152312Z 18004KT 18/03 A3022 RMK A01 T01840032  RH  036%=      5-min Rain = 0
KCA2 152313Z 18004KT 18/03 A3022 RMK A01 T01840033  RH  037%=      5-min Rain = 0
KCA2 152314Z 20003KT 18/03 A3022 RMK A01 T01840034  RH  037%=      5-min Rain = 0
KCA2 152315Z 18003KT 18/04 A3022 RMK A01 T01840035  RH  037%=      5-min Rain = 0
KCA2 152316Z 19003KT 19/03 A3022 RMK A01 T01850034  RH  036%=      5-min Rain = 0
KCA2 152317Z 19004KT 18/03 A3022 RMK A01 T01840032  RH  036%=      5-min Rain = 0
KCA2 152318Z 18003KT 18/03 A3022 RMK A01 T01830030  RH  036%=      5-min Rain = 0
KCA2 152319Z 21003KT 18/03 A3022 RMK A01 T01820032  RH  037%=      5-min Rain = 0
KCA2 152320Z 21003KT 18/03 A3022 RMK A01 T01820032  RH  037%=      5-min Rain = 0
KCA2 152321Z 21003KT 18/03 A3022 RMK A01 T01820033  RH  037%=      5-min Rain = 0
KCA2 152322Z 21003KT 18/04 A3022 RMK A01 T01820036  RH  038%=      5-min Rain = 0
KCA2 152323Z 19004KT 18/03 A3022 RMK A01 T01820034  RH  037%=      5-min Rain = 0
KCA2 152324Z 20003KT 18/04 A3022 RMK A01 T01820035  RH  038%=      5-min Rain = 0
KCA2 152325Z 20004KT 18/04 A3022 RMK A01 T01810036  RH  038%=      5-min Rain = 0
KCA2 152326Z 20003KT 18/04 A3022 RMK A01 T01800036  RH  038%=      5-min Rain = 0
KCA2 152327Z 20004KT 18/03 A3022 RMK A01 T01800034  RH  038%=      5-min Rain = 0
KCA2 152328Z 21004KT 18/03 A3022 RMK A01 T01780033  RH  038%=      5-min Rain = 0
KCA2 152329Z 21004KT 18/03 A3022 RMK A01 T01760034  RH  039%=      5-min Rain = 0
KCA2 152330Z 21004KT 18/03 A3022 RMK A01 T01750034  RH  039%=      5-min Rain = 0
KCA2 152331Z 20004KT 17/03 A3022 RMK A01 T01740033  RH  039%=      5-min Rain = 0
KCA2 152332Z 21003KT 17/03 A3022 RMK A01 T01730034  RH  039%=      5-min Rain = 0
KCA2 152333Z 21003KT 17/04 A3022 RMK A01 T01730036  RH  040%=      5-min Rain = 0
KCA2 152334Z 20003KT 17/04 A3022 RMK A01 T01720038  RH  041%=      5-min Rain = 0
KCA2 152335Z 20004KT 17/04 A3022 RMK A01 T01720037  RH  041%=      5-min Rain = 0
KCA2 152336Z 20004KT 17/04 A3022 RMK A01 T01710037  RH  041%=      5-min Rain = 0
KCA2 152337Z 20004KT 17/04 A3022 RMK A01 T01700036  RH  041%=      5-min Rain = 0
KCA2 152338Z 20004KT 17/04 A3022 RMK A01 T01700038  RH  042%=      5-min Rain = 0
KCA2 152339Z 20004KT 17/04 A3022 RMK A01 T01690036  RH  041%=      5-min Rain = 0
KCA2 152340Z 19004KT 17/04 A3022 RMK A01 T01690035  RH  041%=      5-min Rain = 0
KCA2 152341Z 20004KT 17/04 A3022 RMK A01 T01690036  RH  041%=      5-min Rain = 0
KCA2 152342Z 20004KT 17/04 A3022 RMK A01 T01690036  RH  041%=      5-min Rain = 0
KCA2 152343Z 20004KT 17/04 A3022 RMK A01 T01690037  RH  041%=      5-min Rain = 0
KCA2 152344Z 20004KT 17/04 A3022 RMK A01 T01680038  RH  042%=      5-min Rain = 0
KCA2 152345Z 20004KT 17/04 A3022 RMK A01 T01680036  RH  041%=      5-min Rain = 0
KCA2 152346Z 20004KT 17/04 A3022 RMK A01 T01680037  RH  042%=      5-min Rain = 0
KCA2 152347Z 19004KT 17/04 A3022 RMK A01 T01670038  RH  042%=      5-min Rain = 0
KCA2 152348Z 19004KT 17/04 A3022 RMK A01 T01670038  RH  042%=      5-min Rain = 0
KCA2 152349Z 19004KT 17/04 A3022 RMK A01 T01670038  RH  042%=      5-min Rain = 0
KCA2 152350Z 19004KT 17/04 A3021 RMK A01 T01670037  RH  042%=      5-min Rain = 0
KCA2 152351Z 19004KT 17/04 A3021 RMK A01 T01670037  RH  042%=      5-min Rain = 0
KCA2 152352Z 19004KT 17/04 A3021 RMK A01 T01670037  RH  042%=      5-min Rain = 0
KCA2 152353Z 19004KT 17/04 A3021 RMK A01 T01670037  RH  042%=      5-min Rain = 0
KCA2 152354Z 19004KT 17/04 A3022 RMK A01 T01660037  RH  042%=      5-min Rain = 0
KCA2 152355Z 19005KT 17/04 A3022 RMK A01 T01660037  RH  042%=      5-min Rain = 0
KCA2 152356Z 19005KT 17/04 A3022 RMK A01 T01650039  RH  043%=      5-min Rain = 0
KCA2 152357Z 18005KT 16/04 A3022 RMK A01 T01640039  RH  043%=      5-min Rain = 0
KCA2 152358Z 19005KT 16/04 A3021 RMK A01 T01640039  RH  043%=      5-min Rain = 0
KCA2 152359Z 19005KT 16/04 A3021 RMK A01 T01630037  RH  043%=      5-min Rain = 0
KCA2 160000Z 19005KT 16/04 A3021 RMK A01 T01620037  RH  043%=      5-min Rain = 0
KCA2 160001Z 19005KT 16/04 A3021 RMK A01 T01620037  RH  043%=      5-min Rain = 0
KCA2 160002Z 20004KT 16/04 A3021 RMK A01 T01620037  RH  043%=      5-min Rain = 0
KCA2 160003Z 20004KT 16/04 A3021 RMK A01 T01620038  RH  044%=      5-min Rain = 0
KCA2 160004Z 20004KT 16/04 A3021 RMK A01 T01620038  RH  044%=      5-min Rain = 0
KCA2 160005Z 20005KT 16/04 A3022 RMK A01 T01620039  RH  044%=      5-min Rain = 0
KCA2 160006Z 19005KT 16/04 A3022 RMK A01 T01610040  RH  044%=      5-min Rain = 0
KCA2 160007Z 19005KT 16/04 A3022 RMK A01 T01610040  RH  044%=      5-min Rain = 0
KCA2 160008Z 19004KT 16/04 A3022 RMK A01 T01610041  RH  045%=      5-min Rain = 0
KCA2 160009Z 19004KT 16/04 A3021 RMK A01 T01610040  RH  045%=      5-min Rain = 0
KCA2 160010Z 19004KT 16/04 A3021 RMK A01 T01610042  RH  045%=      5-min Rain = 0
KCA2 160011Z 19004KT 16/04 A3021 RMK A01 T01610042  RH  045%=      5-min Rain = 0
KCA2 160012Z 19004KT 16/04 A3021 RMK A01 T01610042  RH  045%=      5-min Rain = 0
KCA2 160013Z 19004KT 16/04 A3021 RMK A01 T01610042  RH  045%=      5-min Rain = 0
KCA2 160014Z 19004KT 16/04 A3021 RMK A01 T01610041  RH  045%=      5-min Rain = 0
KCA2 160015Z 19004KT 16/04 A3021 RMK A01 T01610040  RH  045%=      5-min Rain = 0
KCA2 160016Z 19004KT 16/04 A3021 RMK A01 T01610041  RH  045%=      5-min Rain = 0
KCA2 160017Z 19004KT 16/04 A3021 RMK A01 T01610042  RH  045%=      5-min Rain = 0
KCA2 160018Z 19004KT 16/04 A3021 RMK A01 T01610042  RH  045%=      5-min Rain = 0
KCA2 160019Z 19004KT 16/04 A3021 RMK A01 T01610043  RH  045%=      5-min Rain = 0
KCA2 160020Z 19004KT 16/04 A3021 RMK A01 T01610043  RH  046%=      5-min Rain = 0
KCA2 160021Z 19004KT 16/04 A3021 RMK A01 T01600043  RH  046%=      5-min Rain = 0
KCA2 160022Z 19004KT 16/04 A3021 RMK A01 T01590044  RH  046%=      5-min Rain = 0
KCA2 160023Z 19004KT 16/04 A3021 RMK A01 T01590044  RH  046%=      5-min Rain = 0
KCA2 160024Z 19004KT 16/04 A3021 RMK A01 T01590044  RH  046%=      5-min Rain = 0
KCA2 160025Z 19004KT 16/04 A3021 RMK A01 T01590044  RH  046%=      5-min Rain = 0
KCA2 160026Z 20004KT 16/04 A3021 RMK A01 T01590043  RH  046%=      5-min Rain = 0
KCA2 160027Z 20004KT 16/04 A3022 RMK A01 T01600043  RH  046%=      5-min Rain = 0
KCA2 160028Z 19004KT 16/04 A3022 RMK A01 T01600044  RH  046%=      5-min Rain = 0
KCA2 160029Z 19004KT 16/05 A3021 RMK A01 T01600045  RH  046%=      5-min Rain = 0
KCA2 160030Z 20003KT 16/05 A3021 RMK A01 T01600045  RH  046%=      5-min Rain = 0
KCA2 160031Z 19003KT 16/04 A3021 RMK A01 T01600044  RH  046%=      5-min Rain = 0
KCA2 160032Z 19003KT 16/05 A3021 RMK A01 T01590045  RH  047%=      5-min Rain = 0
KCA2 160033Z 19003KT 16/05 A3021 RMK A01 T01590047  RH  047%=      5-min Rain = 0
KCA2 160034Z 19003KT 16/05 A3021 RMK A01 T01580048  RH  048%=      5-min Rain = 0
KCA2 160035Z 19003KT 16/05 A3021 RMK A01 T01570046  RH  048%=      5-min Rain = 0
KCA2 160036Z 19003KT 16/05 A3022 RMK A01 T01560045  RH  047%=      5-min Rain = 0
KCA2 160037Z 19003KT 16/05 A3022 RMK A01 T01550046  RH  048%=      5-min Rain = 0
KCA2 160038Z 19003KT 16/05 A3022 RMK A01 T01550047  RH  048%=      5-min Rain = 0
KCA2 160039Z 19003KT 16/05 A3022 RMK A01 T01550046  RH  048%=      5-min Rain = 0
KCA2 160040Z 19003KT 16/05 A3022 RMK A01 T01550046  RH  048%=      5-min Rain = 0
KCA2 160041Z 19003KT 16/05 A3022 RMK A01 T01550046  RH  048%=      5-min Rain = 0
KCA2 160042Z 19003KT 15/05 A3022 RMK A01 T01540046  RH  049%=      5-min Rain = 0
KCA2 160043Z 19002KT 15/04 A3022 RMK A01 T01540044  RH  048%=      5-min Rain = 0
KCA2 160044Z 19002KT 15/04 A3022 RMK A01 T01540044  RH  048%=      5-min Rain = 0
KCA2 160045Z 19002KT 16/04 A3022 RMK A01 T01550044  RH  047%=      5-min Rain = 0
KCA2 160046Z 20002KT 16/05 A3022 RMK A01 T01550045  RH  048%=      5-min Rain = 0
KCA2 160047Z 20002KT 16/05 A3022 RMK A01 T01550047  RH  048%=      5-min Rain = 0
KCA2 160048Z 20002KT 16/05 A3022 RMK A01 T01550046  RH  048%=      5-min Rain = 0
KCA2 160049Z 20002KT 16/05 A3022 RMK A01 T01550049  RH  049%=      5-min Rain = 0
KCA2 160050Z 20001KT 16/05 A3022 RMK A01 T01550052  RH  050%=      5-min Rain = 0
KCA2 160051Z 20001KT 15/05 A3022 RMK A01 T01540050  RH  050%=      5-min Rain = 0
KCA2 160052Z 19000KT 15/05 A3022 RMK A01 T01520051  RH  051%=      5-min Rain = 0
KCA2 160053Z 18000KT 15/05 A3022 RMK A01 T01520048  RH  050%=      5-min Rain = 0
KCA2 160054Z 17000KT 15/05 A3022 RMK A01 T01510050  RH  051%=      5-min Rain = 0
KCA2 160055Z 00000KT 15/05 A3022 RMK A01 T01510047  RH  050%=      5-min Rain = 0
KCA2 160056Z 12000KT 15/05 A3022 RMK A01 T01510048  RH  050%=      5-min Rain = 0
KCA2 160057Z 00000KT 15/05 A3021 RMK A01 T01510046  RH  049%=      5-min Rain = 0
KCA2 160058Z 12000KT 15/04 A3021 RMK A01 T01520043  RH  048%=      5-min Rain = 0
KCA2 160059Z 11000KT 15/04 A3022 RMK A01 T01520043  RH  048%=      5-min Rain = 0
KCA2 160100Z 09001KT 15/04 A3022 RMK A01 T01530044  RH  048%=      5-min Rain = 0
KCA2 160101Z 08001KT 15/05 A3022 RMK A01 T01530050  RH  050%=      5-min Rain = 0
KCA2 160102Z 07001KT 15/05 A3022 RMK A01 T01510048  RH  050%=      5-min Rain = 0
KCA2 160103Z 07001KT 15/05 A3022 RMK A01 T01500049  RH  051%=      5-min Rain = 0
KCA2 160104Z 07001KT 15/05 A3022 RMK A01 T01490050  RH  052%=      5-min Rain = 0
KCA2 160105Z 07001KT 15/05 A3022 RMK A01 T01480050  RH  052%=      5-min Rain = 0
KCA2 160106Z 07001KT 15/05 A3022 RMK A01 T01480050  RH  052%=      5-min Rain = 0
KCA2 160107Z 08001KT 15/05 A3022 RMK A01 T01470048  RH  051%=      5-min Rain = 0
KCA2 160108Z 06001KT 15/05 A3022 RMK A01 T01470047  RH  051%=      5-min Rain = 0
KCA2 160109Z 07001KT 15/05 A3022 RMK A01 T01480048  RH  051%=      5-min Rain = 0
KCA2 160110Z 08001KT 15/05 A3022 RMK A01 T01480048  RH  051%=      5-min Rain = 0
KCA2 160111Z 07001KT 15/05 A3022 RMK A01 T01480046  RH  050%=      5-min Rain = 0
KCA2 160112Z 07001KT 15/05 A3022 RMK A01 T01480046  RH  050%=      5-min Rain = 0
KCA2 160113Z 08001KT 15/05 A3022 RMK A01 T01490045  RH  050%=      5-min Rain = 0
KCA2 160114Z 09001KT 15/05 A3022 RMK A01 T01490045  RH  050%=      5-min Rain = 0
KCA2 160115Z 08001KT 15/05 A3022 RMK A01 T01490045  RH  050%=      5-min Rain = 0
KCA2 160116Z 09000KT 15/04 A3022 RMK A01 T01490043  RH  049%=      5-min Rain = 0
KCA2 160117Z 07000KT 15/04 A3022 RMK A01 T01500043  RH  049%=      5-min Rain = 0
KCA2 160118Z 06000KT 15/04 A3022 RMK A01 T01500044  RH  049%=      5-min Rain = 0
KCA2 160119Z 05001KT 15/04 A3022 RMK A01 T01500044  RH  049%=      5-min Rain = 0
KCA2 160120Z 05000KT 15/05 A3022 RMK A01 T01510047  RH  050%=      5-min Rain = 0
KCA2 160121Z 05001KT 15/05 A3022 RMK A01 T01500047  RH  050%=      5-min Rain = 0
KCA2 160122Z 03001KT 15/05 A3022 RMK A01 T01500048  RH  051%=      5-min Rain = 0
KCA2 160123Z 02001KT 15/05 A3022 RMK A01 T01500047  RH  050%=      5-min Rain = 0
KCA2 160124Z 01001KT 15/05 A3022 RMK A01 T01500046  RH  050%=      5-min Rain = 0
KCA2 160125Z 01001KT 15/05 A3022 RMK A01 T01500052  RH  052%=      5-min Rain = 0
KCA2 160126Z 01001KT 15/05 A3022 RMK A01 T01490050  RH  051%=      5-min Rain = 0
KCA2 160127Z 01001KT 15/05 A3022 RMK A01 T01490047  RH  051%=      5-min Rain = 0
KCA2 160128Z 01001KT 15/05 A3022 RMK A01 T01490046  RH  050%=      5-min Rain = 0
KCA2 160129Z 01001KT 15/05 A3022 RMK A01 T01490047  RH  050%=      5-min Rain = 0
KCA2 160130Z 01001KT 15/05 A3022 RMK A01 T01500045  RH  050%=      5-min Rain = 0
KCA2 160131Z 01001KT 15/04 A3022 RMK A01 T01500044  RH  049%=      5-min Rain = 0
KCA2 160132Z 01001KT 15/04 A3022 RMK A01 T01500043  RH  049%=      5-min Rain = 0
KCA2 160133Z 01001KT 15/04 A3022 RMK A01 T01510044  RH  049%=      5-min Rain = 0
KCA2 160134Z 02001KT 15/04 A3022 RMK A01 T01510044  RH  049%=      5-min Rain = 0
KCA2 160135Z 02001KT 15/04 A3022 RMK A01 T01510044  RH  049%=      5-min Rain = 0
KCA2 160136Z 02002KT 15/04 A3022 RMK A01 T01510043  RH  048%=      5-min Rain = 0
KCA2 160137Z 02002KT 15/04 A3022 RMK A01 T01510044  RH  049%=      5-min Rain = 0
KCA2 160138Z 02002KT 15/04 A3022 RMK A01 T01510043  RH  048%=      5-min Rain = 0
KCA2 160139Z 02002KT 15/04 A3022 RMK A01 T01510043  RH  049%=      5-min Rain = 0
KCA2 160140Z 02001KT 15/05 A3022 RMK A01 T01510053  RH  052%=      5-min Rain = 0
KCA2 160141Z 02001KT 15/06 A3022 RMK A01 T01480058  RH  055%=      5-min Rain = 0
KCA2 160142Z 02001KT 15/06 A3022 RMK A01 T01450059  RH  056%=      5-min Rain = 0
KCA2 160143Z 02001KT 14/06 A3022 RMK A01 T01430061  RH  058%=      5-min Rain = 0
KCA2 160144Z 02001KT 14/06 A3022 RMK A01 T01400060  RH  059%=      5-min Rain = 0
KCA2 160145Z 02001KT 14/06 A3022 RMK A01 T01380059  RH  059%=      5-min Rain = 0
KCA2 160146Z 02001KT 14/06 A3022 RMK A01 T01370063  RH  061%=      5-min Rain = 0
KCA2 160147Z 03000KT 13/07 A3022 RMK A01 T01340066  RH  063%=      5-min Rain = 0
KCA2 160148Z 00000KT 13/06 A3022 RMK A01 T01330062  RH  062%=      5-min Rain = 0
KCA2 160149Z 00000KT 13/06 A3022 RMK A01 T01320059  RH  061%=      5-min Rain = 0
KCA2 160150Z 00000KT 13/06 A3022 RMK A01 T01320058  RH  061%=      5-min Rain = 0
KCA2 160151Z 00000KT 13/06 A3022 RMK A01 T01320058  RH  061%=      5-min Rain = 0
KCA2 160152Z 00000KT 13/06 A3022 RMK A01 T01320059  RH  061%=      5-min Rain = 0
KCA2 160153Z 00000KT 13/06 A3022 RMK A01 T01320059  RH  061%=      5-min Rain = 0
KCA2 160154Z 26000KT 13/06 A3023 RMK A01 T01320059  RH  061%=      5-min Rain = 0
KCA2 160155Z 27001KT 13/06 A3023 RMK A01 T01320058  RH  061%=      5-min Rain = 0
KCA2 160156Z 27001KT 13/06 A3023 RMK A01 T01320058  RH  061%=      5-min Rain = 0
KCA2 160157Z 27001KT 13/06 A3023 RMK A01 T01320058  RH  061%=      5-min Rain = 0
KCA2 160158Z 27001KT 13/06 A3023 RMK A01 T01330058  RH  060%=      5-min Rain = 0
KCA2 160159Z 27001KT 13/06 A3023 RMK A01 T01330056  RH  060%=      5-min Rain = 0
KCA2 160200Z 29001KT 13/06 A3023 RMK A01 T01340056  RH  059%=      5-min Rain = 0
KCA2 160201Z 28001KT 13/06 A3023 RMK A01 T01340056  RH  059%=      5-min Rain = 0
KCA2 160202Z 29001KT 14/06 A3023 RMK A01 T01350056  RH  059%=      5-min Rain = 0
KCA2 160203Z 30001KT 14/05 A3023 RMK A01 T01350053  RH  058%=      5-min Rain = 0
KCA2 160204Z 30001KT 14/05 A3023 RMK A01 T01350053  RH  058%=      5-min Rain = 0
KCA2 160205Z 31001KT 14/05 A3023 RMK A01 T01360053  RH  057%=      5-min Rain = 0
KCA2 160206Z 32001KT 14/05 A3023 RMK A01 T01360054  RH  057%=      5-min Rain = 0
KCA2 160207Z 32001KT 14/05 A3023 RMK A01 T01360054  RH  058%=      5-min Rain = 0
KCA2 160208Z 32002KT 14/06 A3023 RMK A01 T01360055  RH  058%=      5-min Rain = 0
KCA2 160209Z 32002KT 14/06 A3023 RMK A01 T01360056  RH  058%=      5-min Rain = 0
KCA2 160210Z 32001KT 14/06 A3023 RMK A01 T01360056  RH  059%=      5-min Rain = 0
KCA2 160211Z 33001KT 14/06 A3023 RMK A01 T01350057  RH  059%=      5-min Rain = 0
KCA2 160212Z 34000KT 14/06 A3023 RMK A01 T01350055  RH  059%=      5-min Rain = 0
KCA2 160213Z 35001KT 14/06 A3023 RMK A01 T01350055  RH  058%=      5-min Rain = 0
KCA2 160214Z 34002KT 14/06 A3023 RMK A01 T01350062  RH  061%=      5-min Rain = 0
KCA2 160215Z 34001KT 13/06 A3023 RMK A01 T01330059  RH  061%=      5-min Rain = 0
KCA2 160216Z 01001KT 13/06 A3023 RMK A01 T01330060  RH  061%=      5-min Rain = 0
KCA2 160217Z 02001KT 13/06 A3023 RMK A01 T01330061  RH  061%=      5-min Rain = 0
KCA2 160218Z 02000KT 13/06 A3023 RMK A01 T01330060  RH  061%=      5-min Rain = 0
KCA2 160219Z 04000KT 13/06 A3023 RMK A01 T01330060  RH  061%=      5-min Rain = 0
KCA2 160220Z 04001KT 13/06 A3023 RMK A01 T01330063  RH  062%=      5-min Rain = 0
KCA2 160221Z 05001KT 13/06 A3023 RMK A01 T01320064  RH  063%=      5-min Rain = 0
KCA2 160222Z 05001KT 13/06 A3023 RMK A01 T01320058  RH  061%=      5-min Rain = 0
KCA2 160223Z 05001KT 13/06 A3023 RMK A01 T01320056  RH  060%=      5-min Rain = 0
KCA2 160224Z 05001KT 13/06 A3023 RMK A01 T01330055  RH  059%=      5-min Rain = 0
KCA2 160225Z 04001KT 13/06 A3023 RMK A01 T01340055  RH  059%=      5-min Rain = 0
KCA2 160226Z 03001KT 13/06 A3023 RMK A01 T01340062  RH  062%=      5-min Rain = 0
KCA2 160227Z 03000KT 13/06 A3023 RMK A01 T01310063  RH  063%=      5-min Rain = 0
KCA2 160228Z 00000KT 13/06 A3023 RMK A01 T01280061  RH  064%=      5-min Rain = 0
KCA2 160229Z 00000KT 13/06 A3023 RMK A01 T01260062  RH  065%=      5-min Rain = 0
KCA2 160230Z 00000KT 13/06 A3023 RMK A01 T01260061  RH  065%=      5-min Rain = 0
KCA2 160231Z 00000KT 13/06 A3023 RMK A01 T01250061  RH  065%=      5-min Rain = 0
KCA2 160232Z 00000KT 13/06 A3023 RMK A01 T01250060  RH  065%=      5-min Rain = 0
KCA2 160233Z 00000KT 12/06 A3023 RMK A01 T01240059  RH  064%=      5-min Rain = 0
KCA2 160234Z 00000KT 13/06 A3023 RMK A01 T01250060  RH  064%=      5-min Rain = 0
KCA2 160235Z 00000KT 13/06 A3023 RMK A01 T01260057  RH  063%=      5-min Rain = 0
KCA2 160236Z 00000KT 13/05 A3023 RMK A01 T01270053  RH  061%=      5-min Rain = 0
KCA2 160237Z 00000KT 13/05 A3023 RMK A01 T01280052  RH  060%=      5-min Rain = 0
KCA2 160238Z 00000KT 13/05 A3023 RMK A01 T01290053  RH  060%=      5-min Rain = 0
KCA2 160239Z 31000KT 13/06 A3023 RMK A01 T01300055  RH  060%=      5-min Rain = 0
KCA2 160240Z 31001KT 13/06 A3023 RMK A01 T01310057  RH  061%=      5-min Rain = 0
KCA2 160241Z 31001KT 13/06 A3023 RMK A01 T01310057  RH  061%=      5-min Rain = 0
KCA2 160242Z 31001KT 13/06 A3023 RMK A01 T01310057  RH  061%=      5-min Rain = 0
KCA2 160243Z 31001KT 13/06 A3023 RMK A01 T01300057  RH  061%=      5-min Rain = 0
KCA2 160244Z 31001KT 13/06 A3023 RMK A01 T01290056  RH  061%=      5-min Rain = 0
KCA2 160245Z 31001KT 13/06 A3023 RMK A01 T01280056  RH  061%=      5-min Rain = 0
KCA2 160246Z 31001KT 13/05 A3023 RMK A01 T01280054  RH  061%=      5-min Rain = 0
KCA2 160247Z 31001KT 13/05 A3023 RMK A01 T01280053  RH  060%=      5-min Rain = 0
KCA2 160248Z 32001KT 13/05 A3023 RMK A01 T01290053  RH  060%=      5-min Rain = 0
KCA2 160249Z 33001KT 13/05 A3023 RMK A01 T01290053  RH  060%=      5-min Rain = 0
KCA2 160250Z 33001KT 13/05 A3023 RMK A01 T01300052  RH  059%=      5-min Rain = 0
KCA2 160251Z 34001KT 13/05 A3023 RMK A01 T01300052  RH  059%=      5-min Rain = 0
KCA2 160252Z 35001KT 13/05 A3023 RMK A01 T01300053  RH  059%=      5-min Rain = 0
KCA2 160253Z 35001KT 13/05 A3023 RMK A01 T01310053  RH  059%=      5-min Rain = 0
KCA2 160254Z 34001KT 13/05 A3023 RMK A01 T01310053  RH  059%=      5-min Rain = 0
KCA2 160255Z 34001KT 13/06 A3023 RMK A01 T01310057  RH  061%=      5-min Rain = 0
KCA2 160256Z 34001KT 13/06 A3023 RMK A01 T01300057  RH  061%=      5-min Rain = 0
KCA2 160257Z 34001KT 13/06 A3023 RMK A01 T01290056  RH  061%=      5-min Rain = 0
KCA2 160258Z 34001KT 13/06 A3023 RMK A01 T01280058  RH  062%=      5-min Rain = 0
KCA2 160259Z 34001KT 13/06 A3023 RMK A01 T01270059  RH  063%=      5-min Rain = 0
KCA2 160300Z 35001KT 13/06 A3023 RMK A01 T01260057  RH  063%=      5-min Rain = 0
KCA2 160301Z 34001KT 13/06 A3023 RMK A01 T01250057  RH  063%=      5-min Rain = 0
KCA2 160302Z 34001KT 12/06 A3023 RMK A01 T01240057  RH  064%=      5-min Rain = 0
KCA2 160303Z 32001KT 12/06 A3023 RMK A01 T01240059  RH  065%=      5-min Rain = 0
KCA2 160304Z 32001KT 12/06 A3023 RMK A01 T01220062  RH  066%=      5-min Rain = 0
KCA2 160305Z 31002KT 12/06 A3023 RMK A01 T01200062  RH  067%=      5-min Rain = 0
KCA2 160306Z 31002KT 12/06 A3023 RMK A01 T01190062  RH  068%=      5-min Rain = 0
KCA2 160307Z 31002KT 12/06 A3023 RMK A01 T01170063  RH  069%=      5-min Rain = 0
KCA2 160308Z 31003KT 12/06 A3023 RMK A01 T01160063  RH  070%=      5-min Rain = 0
KCA2 160309Z 31003KT 12/06 A3023 RMK A01 T01150062  RH  070%=      5-min Rain = 0
KCA2 160310Z 32003KT 12/06 A3023 RMK A01 T01150061  RH  070%=      5-min Rain = 0
KCA2 160311Z 31003KT 12/06 A3023 RMK A01 T01150061  RH  069%=      5-min Rain = 0
KCA2 160312Z 31003KT 12/06 A3023 RMK A01 T01150061  RH  070%=      5-min Rain = 0
KCA2 160313Z 31003KT 12/06 A3023 RMK A01 T01150061  RH  070%=      5-min Rain = 0
KCA2 160314Z 30002KT 12/06 A3023 RMK A01 T01150061  RH  069%=      5-min Rain = 0
KCA2 160315Z 29002KT 12/06 A3023 RMK A01 T01160059  RH  068%=      5-min Rain = 0
KCA2 160316Z 29002KT 12/06 A3023 RMK A01 T01180059  RH  067%=      5-min Rain = 0
KCA2 160317Z 29002KT 12/06 A3023 RMK A01 T01190059  RH  067%=      5-min Rain = 0
KCA2 160318Z 29002KT 12/06 A3023 RMK A01 T01190059  RH  066%=      5-min Rain = 0
KCA2 160319Z 29002KT 12/06 A3023 RMK A01 T01200059  RH  066%=      5-min Rain = 0
KCA2 160320Z 30002KT 12/06 A3023 RMK A01 T01200058  RH  066%=      5-min Rain = 0
KCA2 160321Z 30002KT 12/06 A3023 RMK A01 T01210056  RH  065%=      5-min Rain = 0
KCA2 160322Z 30002KT 12/06 A3023 RMK A01 T01220057  RH  064%=      5-min Rain = 0
KCA2 160323Z 31002KT 12/06 A3023 RMK A01 T01220057  RH  065%=      5-min Rain = 0
KCA2 160324Z 32002KT 12/06 A3023 RMK A01 T01220059  RH  065%=      5-min Rain = 0
KCA2 160325Z 32002KT 12/06 A3023 RMK A01 T01210062  RH  067%=      5-min Rain = 0
KCA2 160326Z 33003KT 12/06 A3023 RMK A01 T01200061  RH  067%=      5-min Rain = 0
KCA2 160327Z 35002KT 12/06 A3023 RMK A01 T01180061  RH  068%=      5-min Rain = 0
KCA2 160328Z 34002KT 12/06 A3023 RMK A01 T01170062  RH  069%=      5-min Rain = 0
KCA2 160329Z 34002KT 12/06 A3023 RMK A01 T01160060  RH  068%=      5-min Rain = 0
KCA2 160330Z 33002KT 12/06 A3023 RMK A01 T01170059  RH  067%=      5-min Rain = 0
KCA2 160331Z 33002KT 12/06 A3023 RMK A01 T01180059  RH  067%=      5-min Rain = 0
KCA2 160332Z 33002KT 12/06 A3023 RMK A01 T01200058  RH  066%=      5-min Rain = 0
KCA2 160333Z 34002KT 12/06 A3023 RMK A01 T01210058  RH  065%=      5-min Rain = 0
KCA2 160334Z 34002KT 12/06 A3023 RMK A01 T01210057  RH  065%=      5-min Rain = 0
KCA2 160335Z 34002KT 12/06 A3023 RMK A01 T01220058  RH  065%=      5-min Rain = 0
KCA2 160336Z 34002KT 12/06 A3023 RMK A01 T01220058  RH  065%=      5-min Rain = 0
KCA2 160337Z 35002KT 12/06 A3022 RMK A01 T01220057  RH  065%=      5-min Rain = 0
KCA2 160338Z 34002KT 12/06 A3022 RMK A01 T01220057  RH  064%=      5-min Rain = 0
KCA2 160339Z 34002KT 12/06 A3022 RMK A01 T01220056  RH  064%=      5-min Rain = 0
KCA2 160340Z 33002KT 12/06 A3022 RMK A01 T01220055  RH  064%=      5-min Rain = 0
KCA2 160341Z 34003KT 12/06 A3022 RMK A01 T01220056  RH  064%=      5-min Rain = 0
KCA2 160342Z 34003KT 12/06 A3022 RMK A01 T01230057  RH  064%=      5-min Rain = 0
KCA2 160343Z 34003KT 12/06 A3022 RMK A01 T01220055  RH  064%=      5-min Rain = 0
KCA2 160344Z 33003KT 12/05 A3022 RMK A01 T01220054  RH  063%=      5-min Rain = 0
KCA2 160345Z 33004KT 12/06 A3022 RMK A01 T01230055  RH  063%=      5-min Rain = 0
KCA2 160346Z 33004KT 12/06 A3022 RMK A01 T01230055  RH  063%=      5-min Rain = 0
KCA2 160347Z 33003KT 12/06 A3022 RMK A01 T01230055  RH  063%=      5-min Rain = 0
KCA2 160348Z 32003KT 12/05 A3022 RMK A01 T01230054  RH  063%=      5-min Rain = 0
KCA2 160349Z 32003KT 12/05 A3022 RMK A01 T01230054  RH  063%=      5-min Rain = 0
KCA2 160350Z 32003KT 12/06 A3022 RMK A01 T01230055  RH  063%=      5-min Rain = 0
KCA2 160351Z 32003KT 12/06 A3022 RMK A01 T01220055  RH  063%=      5-min Rain = 0
KCA2 160352Z 32003KT 12/06 A3022 RMK A01 T01210056  RH  065%=      5-min Rain = 0
KCA2 160353Z 32003KT 12/06 A3022 RMK A01 T01190057  RH  066%=      5-min Rain = 0
KCA2 160354Z 31003KT 12/06 A3022 RMK A01 T01160056  RH  067%=      5-min Rain = 0
KCA2 160355Z 31003KT 11/06 A3022 RMK A01 T01140057  RH  068%=      5-min Rain = 0
KCA2 160356Z 30003KT 11/06 A3023 RMK A01 T01120057  RH  069%=      5-min Rain = 0
KCA2 160357Z 29003KT 11/06 A3023 RMK A01 T01110057  RH  069%=      5-min Rain = 0
KCA2 160358Z 29002KT 11/06 A3023 RMK A01 T01110057  RH  069%=      5-min Rain = 0
KCA2 160359Z 30003KT 11/06 A3022 RMK A01 T01110056  RH  069%=      5-min Rain = 0
KCA2 160400Z 30002KT 11/06 A3022 RMK A01 T01120055  RH  068%=      5-min Rain = 0
KCA2 160401Z 29002KT 11/06 A3022 RMK A01 T01140056  RH  067%=      5-min Rain = 0
KCA2 160402Z 30002KT 12/06 A3022 RMK A01 T01150055  RH  067%=      5-min Rain = 0
KCA2 160403Z 31002KT 12/06 A3022 RMK A01 T01160055  RH  066%=      5-min Rain = 0
KCA2 160404Z 31002KT 12/06 A3022 RMK A01 T01170055  RH  066%=      5-min Rain = 0
KCA2 160405Z 30002KT 12/06 A3022 RMK A01 T01170055  RH  066%=      5-min Rain = 0
KCA2 160406Z 31001KT 12/06 A3022 RMK A01 T01170055  RH  066%=      5-min Rain = 0
KCA2 160407Z 31001KT 12/06 A3022 RMK A01 T01170056  RH  066%=      5-min Rain = 0
KCA2 160408Z 32001KT 12/06 A3022 RMK A01 T01170057  RH  067%=      5-min Rain = 0
KCA2 160409Z 33000KT 12/06 A3022 RMK A01 T01170059  RH  067%=      5-min Rain = 0
KCA2 160410Z 32000KT 12/06 A3022 RMK A01 T01160057  RH  067%=      5-min Rain = 0
KCA2 160411Z 33001KT 12/06 A3022 RMK A01 T01160058  RH  068%=      5-min Rain = 0
KCA2 160412Z 34000KT 12/06 A3022 RMK A01 T01150060  RH  069%=      5-min Rain = 0
KCA2 160413Z 00000KT 11/06 A3022 RMK A01 T01140058  RH  068%=      5-min Rain = 0
KCA2 160414Z 00000KT 11/06 A3022 RMK A01 T01140058  RH  068%=      5-min Rain = 0
KCA2 160415Z 00000KT 11/06 A3022 RMK A01 T01140057  RH  068%=      5-min Rain = 0
KCA2 160416Z 34000KT 11/06 A3022 RMK A01 T01130055  RH  067%=      5-min Rain = 0
KCA2 160417Z 32001KT 11/06 A3022 RMK A01 T01130055  RH  067%=      5-min Rain = 0
KCA2 160418Z 32001KT 11/05 A3022 RMK A01 T01130054  RH  067%=      5-min Rain = 0
KCA2 160419Z 32000KT 11/05 A3022 RMK A01 T01140054  RH  066%=      5-min Rain = 0
KCA2 160420Z 00000KT 12/06 A3022 RMK A01 T01150055  RH  067%=      5-min Rain = 0
KCA2 160421Z 00000KT 12/06 A3022 RMK A01 T01150059  RH  069%=      5-min Rain = 0
KCA2 160422Z 00000KT 11/06 A3022 RMK A01 T01130062  RH  071%=      5-min Rain = 0
KCA2 160423Z 00000KT 11/06 A3022 RMK A01 T01110062  RH  072%=      5-min Rain = 0
KCA2 160424Z 23001KT 11/06 A3022 RMK A01 T01100061  RH  072%=      5-min Rain = 0
KCA2 160425Z 24001KT 11/06 A3022 RMK A01 T01080059  RH  071%=      5-min Rain = 0
KCA2 160426Z 24001KT 11/06 A3022 RMK A01 T01080062  RH  073%=      5-min Rain = 0
KCA2 160427Z 25002KT 11/07 A3022 RMK A01 T01070066  RH  076%=      5-min Rain = 0
KCA2 160428Z 27002KT 11/07 A3022 RMK A01 T01060068  RH  077%=      5-min Rain = 0
KCA2 160429Z 28002KT 11/07 A3022 RMK A01 T01050065  RH  077%=      5-min Rain = 0
KCA2 160430Z 27002KT 10/06 A3022 RMK A01 T01040061  RH  075%=      5-min Rain = 0
KCA2 160431Z 28002KT 10/06 A3022 RMK A01 T01040059  RH  074%=      5-min Rain = 0
KCA2 160432Z 29001KT 11/06 A3022 RMK A01 T01050058  RH  073%=      5-min Rain = 0
KCA2 160433Z 30001KT 11/06 A3022 RMK A01 T01050058  RH  073%=      5-min Rain = 0
KCA2 160434Z 32001KT 11/06 A3022 RMK A01 T01060059  RH  072%=      5-min Rain = 0
KCA2 160435Z 32001KT 11/06 A3022 RMK A01 T01060058  RH  072%=      5-min Rain = 0
KCA2 160436Z 33000KT 11/06 A3022 RMK A01 T01060058  RH  072%=      5-min Rain = 0
KCA2 160437Z 00000KT 11/06 A3022 RMK A01 T01060059  RH  072%=      5-min Rain = 0
KCA2 160438Z 02001KT 11/06 A3022 RMK A01 T01060062  RH  074%=      5-min Rain = 0
KCA2 160439Z 07000KT 11/06 A3022 RMK A01 T01050060  RH  074%=      5-min Rain = 0
KCA2 160440Z 00000KT 10/06 A3022 RMK A01 T01030059  RH  074%=      5-min Rain = 0
KCA2 160441Z 00000KT 10/06 A3022 RMK A01 T01020058  RH  074%=      5-min Rain = 0
KCA2 160442Z 00000KT 10/06 A3022 RMK A01 T01020058  RH  074%=      5-min Rain = 0
KCA2 160443Z 00000KT 10/06 A3022 RMK A01 T01010058  RH  074%=      5-min Rain = 0
KCA2 160444Z 00000KT 10/06 A3022 RMK A01 T01010058  RH  075%=      5-min Rain = 0
KCA2 160445Z 00000KT 10/06 A3022 RMK A01 T01010059  RH  075%=      5-min Rain = 0
KCA2 160446Z 00000KT 10/06 A3022 RMK A01 T01010058  RH  075%=      5-min Rain = 0
KCA2 160447Z 31001KT 10/06 A3022 RMK A01 T01010060  RH  076%=      5-min Rain = 0
KCA2 160448Z 31002KT 10/06 A3022 RMK A01 T01000061  RH  076%=      5-min Rain = 0
KCA2 160449Z 31002KT 10/06 A3022 RMK A01 T01000060  RH  076%=      5-min Rain = 0
KCA2 160450Z 31002KT 10/06 A3022 RMK A01 T00990061  RH  077%=      5-min Rain = 0
KCA2 160451Z 31001KT 10/06 A3022 RMK A01 T00980059  RH  077%=      5-min Rain = 0
KCA2 160452Z 28001KT 10/06 A3022 RMK A01 T00970059  RH  077%=      5-min Rain = 0
KCA2 160453Z 28001KT 10/06 A3022 RMK A01 T00970061  RH  078%=      5-min Rain = 0
KCA2 160454Z 30002KT 10/06 A3022 RMK A01 T00960061  RH  078%=      5-min Rain = 0
KCA2 160455Z 29003KT 10/06 A3022 RMK A01 T00960061  RH  079%=      5-min Rain = 0
KCA2 160456Z 29003KT 10/06 A3022 RMK A01 T00960061  RH  079%=      5-min Rain = 0
KCA2 160457Z 28002KT 10/06 A3022 RMK A01 T00960062  RH  079%=      5-min Rain = 0
KCA2 160458Z 28002KT 09/06 A3022 RMK A01 T00940061  RH  079%=      5-min Rain = 0
KCA2 160459Z 28003KT 09/06 A3022 RMK A01 T00940060  RH  079%=      5-min Rain = 0
KCA2 160500Z 29003KT 10/06 A3022 RMK A01 T00950060  RH  079%=      5-min Rain = 0
KCA2 160501Z 29003KT 10/06 A3022 RMK A01 T00960061  RH  079%=      5-min Rain = 0
KCA2 160502Z 29003KT 10/06 A3022 RMK A01 T00960061  RH  078%=      5-min Rain = 0
KCA2 160503Z 29003KT 10/06 A3022 RMK A01 T00970061  RH  078%=      5-min Rain = 0
KCA2 160504Z 29003KT 10/06 A3022 RMK A01 T00970060  RH  078%=      5-min Rain = 0
KCA2 160505Z 30003KT 10/06 A3022 RMK A01 T00970059  RH  077%=      5-min Rain = 0
KCA2 160506Z 31003KT 10/06 A3022 RMK A01 T00980058  RH  076%=      5-min Rain = 0
KCA2 160507Z 32003KT 10/06 A3022 RMK A01 T01000058  RH  075%=      5-min Rain = 0
KCA2 160508Z 32003KT 10/06 A3022 RMK A01 T01020057  RH  074%=      5-min Rain = 0
KCA2 160509Z 32003KT 10/06 A3022 RMK A01 T01030057  RH  073%=      5-min Rain = 0
KCA2 160510Z 32003KT 10/06 A3022 RMK A01 T01030056  RH  073%=      5-min Rain = 0
KCA2 160511Z 32003KT 10/06 A3022 RMK A01 T01030057  RH  073%=      5-min Rain = 0
KCA2 160512Z 33003KT 10/06 A3022 RMK A01 T01030058  RH  074%=      5-min Rain = 0
KCA2 160513Z 34003KT 10/06 A3022 RMK A01 T01030057  RH  073%=      5-min Rain = 0
KCA2 160514Z 35002KT 10/06 A3022 RMK A01 T01030057  RH  073%=      5-min Rain = 0
KCA2 160515Z 35002KT 10/06 A3022 RMK A01 T01030057  RH  073%=      5-min Rain = 0
KCA2 160516Z 35002KT 10/06 A3022 RMK A01 T01030056  RH  073%=      5-min Rain = 0
KCA2 160517Z 01001KT 10/06 A3022 RMK A01 T01030056  RH  073%=      5-min Rain = 0
KCA2 160518Z 01001KT 10/06 A3022 RMK A01 T01030056  RH  073%=      5-min Rain = 0
KCA2 160519Z 00001KT 10/06 A3022 RMK A01 T01030055  RH  072%=      5-min Rain = 0
KCA2 160520Z 35001KT 10/06 A3022 RMK A01 T01030057  RH  073%=      5-min Rain = 0
KCA2 160521Z 33002KT 10/06 A3022 RMK A01 T01030057  RH  073%=      5-min Rain = 0
KCA2 160522Z 31003KT 10/06 A3022 RMK A01 T01020057  RH  074%=      5-min Rain = 0
KCA2 160523Z 32002KT 10/06 A3022 RMK A01 T01010056  RH  074%=      5-min Rain = 0
KCA2 160524Z 31002KT 10/06 A3022 RMK A01 T01000057  RH  075%=      5-min Rain = 0
KCA2 160525Z 32002KT 10/06 A3022 RMK A01 T00980057  RH  075%=      5-min Rain = 0
KCA2 160526Z 32002KT 10/06 A3022 RMK A01 T00980056  RH  075%=      5-min Rain = 0
KCA2 160527Z 32002KT 10/06 A3022 RMK A01 T00980056  RH  075%=      5-min Rain = 0
KCA2 160528Z 32002KT 10/06 A3022 RMK A01 T00980056  RH  075%=      5-min Rain = 0
KCA2 160529Z 31003KT 10/06 A3022 RMK A01 T00980055  RH  075%=      5-min Rain = 0
KCA2 160530Z 31003KT 10/06 A3022 RMK A01 T00990055  RH  074%=      5-min Rain = 0
KCA2 160531Z 33003KT 10/06 A3022 RMK A01 T00990057  RH  075%=      5-min Rain = 0
KCA2 160532Z 33002KT 10/06 A3022 RMK A01 T00980057  RH  076%=      5-min Rain = 0
KCA2 160533Z 32003KT 10/06 A3022 RMK A01 T00970057  RH  076%=      5-min Rain = 0
KCA2 160534Z 32002KT 10/06 A3022 RMK A01 T00960056  RH  076%=      5-min Rain = 0
KCA2 160535Z 32002KT 10/06 A3022 RMK A01 T00950055  RH  076%=      5-min Rain = 0
KCA2 160536Z 33002KT 10/06 A3022 RMK A01 T00950055  RH  076%=      5-min Rain = 0
KCA2 160537Z 33002KT 10/06 A3022 RMK A01 T00960055  RH  076%=      5-min Rain = 0
KCA2 160538Z 34003KT 10/06 A3022 RMK A01 T00960055  RH  076%=      5-min Rain = 0
KCA2 160539Z 34002KT 10/05 A3022 RMK A01 T00960054  RH  075%=      5-min Rain = 0
KCA2 160540Z 34002KT 10/05 A3022 RMK A01 T00980054  RH  074%=      5-min Rain = 0
KCA2 160541Z 34003KT 10/05 A3022 RMK A01 T00990054  RH  074%=      5-min Rain = 0
KCA2 160542Z 33003KT 10/05 A3022 RMK A01 T01000054  RH  073%=      5-min Rain = 0
KCA2 160543Z 33002KT 10/05 A3021 RMK A01 T01010053  RH  072%=      5-min Rain = 0
KCA2 160544Z 34002KT 10/05 A3021 RMK A01 T01020053  RH  072%=      5-min Rain = 0
KCA2 160545Z 34002KT 10/05 A3021 RMK A01 T01020054  RH  072%=      5-min Rain = 0
KCA2 160546Z 33002KT 10/06 A3021 RMK A01 T01020056  RH  073%=      5-min Rain = 0
KCA2 160547Z 33003KT 10/06 A3021 RMK A01 T01010057  RH  074%=      5-min Rain = 0
KCA2 160548Z 33003KT 10/05 A3021 RMK A01 T01000054  RH  073%=      5-min Rain = 0
KCA2 160549Z 32003KT 10/05 A3021 RMK A01 T01000054  RH  073%=      5-min Rain = 0
KCA2 160550Z 32003KT 10/06 A3021 RMK A01 T01000055  RH  074%=      5-min Rain = 0
KCA2 160551Z 32003KT 10/05 A3021 RMK A01 T00990054  RH  074%=      5-min Rain = 0
KCA2 160552Z 31002KT 10/06 A3021 RMK A01 T00990055  RH  074%=      5-min Rain = 0
KCA2 160553Z 30002KT 10/05 A3021 RMK A01 T00970054  RH  075%=      5-min Rain = 0
KCA2 160554Z 31002KT 10/05 A3021 RMK A01 T00960054  RH  075%=      5-min Rain = 0
KCA2 160555Z 31003KT 10/05 A3021 RMK A01 T00960053  RH  075%=      5-min Rain = 0
KCA2 160556Z 31003KT 10/05 A3021 RMK A01 T00960053  RH  075%=      5-min Rain = 0
KCA2 160557Z 31003KT 10/05 A3021 RMK A01 T00970053  RH  074%=      5-min Rain = 0
KCA2 160558Z 30003KT 10/05 A3021 RMK A01 T00980053  RH  074%=      5-min Rain = 0
KCA2 160559Z 29002KT 10/05 A3021 RMK A01 T00980054  RH  074%=      5-min Rain = 0

Page generated in 0.0699 seconds.